<?xml version="1.0" encoding="UTF-8" standalone="no" ?>
<gpx xmlns="http://www.topografix.com/GPX/1/1" xmlns:xsi="http://www.w3.org/2001/XMLSchema-instance" xsi:schemaLocation="http://www.topografix.com/GPX/1/1 http://www.topografix.com/GPX/1/1/gpx.xsd" version="1.1" creator="VisuGPX - https://www.visugpx.com">
  <metadata>
    <name>Autour de l\\\'Ancienne Abbaye d\\\'Anchin</name>
    <desc><![CDATA[Petit tour ou détour autour de l\'ancienne Abbaye d\'Anchin]]></desc>
  </metadata>
  <trk>
    <name><![CDATA[2012-11-09 13:15]]></name>
    <desc><![CDATA[<h1>OruxMaps</h1><br /><hr align="center" width="480" style="height: 2px; width: 517px"/><h2>Nom: 2012-11-09 13:15</h2><br /><p>Temps de départ: 11/09/2012 13:15</p><p>Temps d'arrivée: 11/10/2012 16:18</p><p>Distance: 14,5 km (03:03)</p><p>Temps déplacement: 02:39</p><p>Vitesse moyenne: 4,7 km/h</p><p>Vitesse moyenne: 5,4 km/h</p><p>Vitess Max.: 214,5 km/h</p><p>Altitude minimale: 37 m</p><p>Altitude maximale: 100 m</p><p>Vitesse d'élévation: 145 m/h</p><p>Vitesse de descente: -114,2 m/h</p><p>Gain Altitude: 90 m</p><p>Perte Altitude: -117 m</p><p>Temps d'élévation: 00:37</p><p>Temps de descente: 01:01</p><hr align="center" width="480" style="height: 2px; width: 517px"/>]]></desc>
    <trkseg>
      <trkpt lat="50.38842" lon="3.23546">
        <ele>72.999405</ele>
        <time>2012-11-10T12:15:11Z</time>
      </trkpt>
      <trkpt lat="50.38861" lon="3.23555">
        <ele>72.04222</ele>
        <time>2012-11-10T12:15:33Z</time>
      </trkpt>
      <trkpt lat="50.38876" lon="3.23535">
        <ele>72.001335</ele>
        <time>2012-11-10T12:15:45Z</time>
      </trkpt>
      <trkpt lat="50.38887" lon="3.23512">
        <ele>72.00007</ele>
        <time>2012-11-10T12:16:00Z</time>
      </trkpt>
      <trkpt lat="50.38895" lon="3.23485">
        <ele>71.999985</ele>
        <time>2012-11-10T12:16:14Z</time>
      </trkpt>
      <trkpt lat="50.38905" lon="3.23461">
        <ele>72.57811</ele>
        <time>2012-11-10T12:16:25Z</time>
      </trkpt>
      <trkpt lat="50.38918" lon="3.23441">
        <ele>72.98213</ele>
        <time>2012-11-10T12:16:36Z</time>
      </trkpt>
      <trkpt lat="50.3893" lon="3.23415">
        <ele>72.74958</ele>
        <time>2012-11-10T12:16:49Z</time>
      </trkpt>
      <trkpt lat="50.38941" lon="3.2339">
        <ele>72.93497</ele>
        <time>2012-11-10T12:17:04Z</time>
      </trkpt>
      <trkpt lat="50.38951" lon="3.23365">
        <ele>72.99724</ele>
        <time>2012-11-10T12:17:15Z</time>
      </trkpt>
      <trkpt lat="50.38959" lon="3.23338">
        <ele>72.99998</ele>
        <time>2012-11-10T12:17:28Z</time>
      </trkpt>
      <trkpt lat="50.38966" lon="3.23311">
        <ele>72.13346</ele>
        <time>2012-11-10T12:17:39Z</time>
      </trkpt>
      <trkpt lat="50.38979" lon="3.23289">
        <ele>72.00184</ele>
        <time>2012-11-10T12:17:54Z</time>
      </trkpt>
      <trkpt lat="50.38994" lon="3.2327">
        <ele>72.000114</ele>
        <time>2012-11-10T12:18:07Z</time>
      </trkpt>
      <trkpt lat="50.39008" lon="3.23251">
        <ele>72.000084</ele>
        <time>2012-11-10T12:18:21Z</time>
      </trkpt>
      <trkpt lat="50.39022" lon="3.23228">
        <ele>71.05631</ele>
        <time>2012-11-10T12:18:34Z</time>
      </trkpt>
      <trkpt lat="50.39034" lon="3.23207">
        <ele>71.00079</ele>
        <time>2012-11-10T12:18:50Z</time>
      </trkpt>
      <trkpt lat="50.39049" lon="3.2319">
        <ele>71.00002</ele>
        <time>2012-11-10T12:19:01Z</time>
      </trkpt>
      <trkpt lat="50.39064" lon="3.23174">
        <ele>70.999985</ele>
        <time>2012-11-10T12:19:13Z</time>
      </trkpt>
      <trkpt lat="50.39079" lon="3.23157">
        <ele>71.00012</ele>
        <time>2012-11-10T12:19:27Z</time>
      </trkpt>
      <trkpt lat="50.39097" lon="3.23151">
        <ele>70.100365</ele>
        <time>2012-11-10T12:19:47Z</time>
      </trkpt>
      <trkpt lat="50.39116" lon="3.23144">
        <ele>70.00563</ele>
        <time>2012-11-10T12:19:57Z</time>
      </trkpt>
      <trkpt lat="50.39135" lon="3.23145">
        <ele>69.31691</ele>
        <time>2012-11-10T12:20:07Z</time>
      </trkpt>
      <trkpt lat="50.39148" lon="3.23168">
        <ele>69.01344</ele>
        <time>2012-11-10T12:20:18Z</time>
      </trkpt>
      <trkpt lat="50.39165" lon="3.23178">
        <ele>67.20178</ele>
        <time>2012-11-10T12:20:32Z</time>
      </trkpt>
      <trkpt lat="50.39182" lon="3.23189">
        <ele>66.10081</ele>
        <time>2012-11-10T12:20:52Z</time>
      </trkpt>
      <trkpt lat="50.39193" lon="3.23214">
        <ele>66.00243</ele>
        <time>2012-11-10T12:21:05Z</time>
      </trkpt>
      <trkpt lat="50.39205" lon="3.23237">
        <ele>65.99994</ele>
        <time>2012-11-10T12:21:19Z</time>
      </trkpt>
      <trkpt lat="50.39221" lon="3.23221">
        <ele>65.13329</ele>
        <time>2012-11-10T12:21:26Z</time>
      </trkpt>
      <trkpt lat="50.39234" lon="3.23199">
        <ele>65.02361</ele>
        <time>2012-11-10T12:21:32Z</time>
      </trkpt>
      <trkpt lat="50.39252" lon="3.23204">
        <ele>65.001045</ele>
        <time>2012-11-10T12:21:44Z</time>
      </trkpt>
      <trkpt lat="50.39259" lon="3.23231">
        <ele>64.237686</ele>
        <time>2012-11-10T12:21:52Z</time>
      </trkpt>
      <trkpt lat="50.39278" lon="3.23239">
        <ele>63.083076</ele>
        <time>2012-11-10T12:22:04Z</time>
      </trkpt>
      <trkpt lat="50.39296" lon="3.23227">
        <ele>62.046402</ele>
        <time>2012-11-10T12:22:15Z</time>
      </trkpt>
      <trkpt lat="50.39311" lon="3.23208">
        <ele>61.180553</ele>
        <time>2012-11-10T12:22:26Z</time>
      </trkpt>
      <trkpt lat="50.3933" lon="3.23202">
        <ele>61.01107</ele>
        <time>2012-11-10T12:22:36Z</time>
      </trkpt>
      <trkpt lat="50.39341" lon="3.23226">
        <ele>61.00062</ele>
        <time>2012-11-10T12:22:53Z</time>
      </trkpt>
      <trkpt lat="50.39356" lon="3.2321">
        <ele>60.562584</ele>
        <time>2012-11-10T12:23:07Z</time>
      </trkpt>
      <trkpt lat="50.39364" lon="3.23184">
        <ele>60.00784</ele>
        <time>2012-11-10T12:23:22Z</time>
      </trkpt>
      <trkpt lat="50.39378" lon="3.23163">
        <ele>60.000206</ele>
        <time>2012-11-10T12:23:36Z</time>
      </trkpt>
      <trkpt lat="50.39391" lon="3.23144">
        <ele>59.17823</ele>
        <time>2012-11-10T12:23:49Z</time>
      </trkpt>
      <trkpt lat="50.39397" lon="3.23116">
        <ele>58.752502</ele>
        <time>2012-11-10T12:24:04Z</time>
      </trkpt>
      <trkpt lat="50.39405" lon="3.23089">
        <ele>58.031563</ele>
        <time>2012-11-10T12:24:15Z</time>
      </trkpt>
      <trkpt lat="50.39423" lon="3.23095">
        <ele>57.999584</ele>
        <time>2012-11-10T12:25:08Z</time>
      </trkpt>
      <trkpt lat="50.39441" lon="3.2309">
        <ele>58.00039</ele>
        <time>2012-11-10T12:25:27Z</time>
      </trkpt>
      <trkpt lat="50.3946" lon="3.23086">
        <ele>57.031994</ele>
        <time>2012-11-10T12:25:43Z</time>
      </trkpt>
      <trkpt lat="50.39476" lon="3.23071">
        <ele>57.00182</ele>
        <time>2012-11-10T12:25:53Z</time>
      </trkpt>
      <trkpt lat="50.39494" lon="3.23064">
        <ele>57.000587</ele>
        <time>2012-11-10T12:26:03Z</time>
      </trkpt>
      <trkpt lat="50.39511" lon="3.23054">
        <ele>56.178898</ele>
        <time>2012-11-10T12:26:19Z</time>
      </trkpt>
      <trkpt lat="50.39529" lon="3.2306">
        <ele>56.002995</ele>
        <time>2012-11-10T12:26:34Z</time>
      </trkpt>
      <trkpt lat="50.39547" lon="3.23066">
        <ele>54.182545</ele>
        <time>2012-11-10T12:26:53Z</time>
      </trkpt>
      <trkpt lat="50.39534" lon="3.23046">
        <ele>52.33237</ele>
        <time>2012-11-10T12:27:16Z</time>
      </trkpt>
      <trkpt lat="50.39547" lon="3.23025">
        <ele>49.802757</ele>
        <time>2012-11-10T12:27:28Z</time>
      </trkpt>
      <trkpt lat="50.39562" lon="3.23007">
        <ele>49.001858</ele>
        <time>2012-11-10T12:27:32Z</time>
      </trkpt>
      <trkpt lat="50.39561" lon="3.22976">
        <ele>46.087914</ele>
        <time>2012-11-10T12:27:51Z</time>
      </trkpt>
      <trkpt lat="50.39569" lon="3.22949">
        <ele>46.00495</ele>
        <time>2012-11-10T12:28:00Z</time>
      </trkpt>
      <trkpt lat="50.39588" lon="3.22928">
        <ele>45.315807</ele>
        <time>2012-11-10T12:28:07Z</time>
      </trkpt>
      <trkpt lat="50.39603" lon="3.22907">
        <ele>45.93059</ele>
        <time>2012-11-10T12:28:15Z</time>
      </trkpt>
      <trkpt lat="50.39613" lon="3.22883">
        <ele>47.77679</ele>
        <time>2012-11-10T12:28:26Z</time>
      </trkpt>
      <trkpt lat="50.3962" lon="3.22856">
        <ele>49.792957</ele>
        <time>2012-11-10T12:28:39Z</time>
      </trkpt>
      <trkpt lat="50.3963" lon="3.2283">
        <ele>52.0782</ele>
        <time>2012-11-10T12:28:51Z</time>
      </trkpt>
      <trkpt lat="50.39636" lon="3.22802">
        <ele>54.346054</ele>
        <time>2012-11-10T12:29:05Z</time>
      </trkpt>
      <trkpt lat="50.39641" lon="3.22774">
        <ele>55.888298</ele>
        <time>2012-11-10T12:29:19Z</time>
      </trkpt>
      <trkpt lat="50.39647" lon="3.22747">
        <ele>57.742935</ele>
        <time>2012-11-10T12:29:33Z</time>
      </trkpt>
      <trkpt lat="50.39654" lon="3.22719">
        <ele>58.862152</ele>
        <time>2012-11-10T12:29:47Z</time>
      </trkpt>
      <trkpt lat="50.39665" lon="3.22693">
        <ele>58.99435</ele>
        <time>2012-11-10T12:29:58Z</time>
      </trkpt>
      <trkpt lat="50.39676" lon="3.22666">
        <ele>58.999336</ele>
        <time>2012-11-10T12:30:07Z</time>
      </trkpt>
      <trkpt lat="50.3968" lon="3.22637">
        <ele>58.999527</ele>
        <time>2012-11-10T12:30:13Z</time>
      </trkpt>
      <trkpt lat="50.39704" lon="3.2261">
        <ele>59.01267</ele>
        <time>2012-11-10T12:30:29Z</time>
      </trkpt>
      <trkpt lat="50.397" lon="3.2264">
        <ele>59.01135</ele>
        <time>2012-11-10T12:30:33Z</time>
      </trkpt>
      <trkpt lat="50.39692" lon="3.22668">
        <ele>59.00895</ele>
        <time>2012-11-10T12:30:36Z</time>
      </trkpt>
      <trkpt lat="50.39683" lon="3.22639">
        <ele>57.045696</ele>
        <time>2012-11-10T12:30:53Z</time>
      </trkpt>
      <trkpt lat="50.39679" lon="3.22611">
        <ele>57.009403</ele>
        <time>2012-11-10T12:30:58Z</time>
      </trkpt>
      <trkpt lat="50.39677" lon="3.22583">
        <ele>56.999184</ele>
        <time>2012-11-10T12:31:08Z</time>
      </trkpt>
      <trkpt lat="50.3968" lon="3.22555">
        <ele>56.99838</ele>
        <time>2012-11-10T12:31:21Z</time>
      </trkpt>
      <trkpt lat="50.39692" lon="3.22534">
        <ele>56.013176</ele>
        <time>2012-11-10T12:31:45Z</time>
      </trkpt>
      <trkpt lat="50.39694" lon="3.22499">
        <ele>55.99543</ele>
        <time>2012-11-10T12:31:55Z</time>
      </trkpt>
      <trkpt lat="50.39692" lon="3.2247">
        <ele>55.997173</ele>
        <time>2012-11-10T12:32:00Z</time>
      </trkpt>
      <trkpt lat="50.39704" lon="3.22443">
        <ele>55.003643</ele>
        <time>2012-11-10T12:32:21Z</time>
      </trkpt>
      <trkpt lat="50.39716" lon="3.22416">
        <ele>54.999157</ele>
        <time>2012-11-10T12:32:24Z</time>
      </trkpt>
      <trkpt lat="50.39727" lon="3.22392">
        <ele>54.99832</ele>
        <time>2012-11-10T12:32:27Z</time>
      </trkpt>
      <trkpt lat="50.39737" lon="3.22367">
        <ele>54.999393</ele>
        <time>2012-11-10T12:32:35Z</time>
      </trkpt>
      <trkpt lat="50.39746" lon="3.22341">
        <ele>55.000362</ele>
        <time>2012-11-10T12:32:49Z</time>
      </trkpt>
      <trkpt lat="50.39755" lon="3.22315">
        <ele>55.000935</ele>
        <time>2012-11-10T12:33:03Z</time>
      </trkpt>
      <trkpt lat="50.39761" lon="3.22287">
        <ele>55.00054</ele>
        <time>2012-11-10T12:33:21Z</time>
      </trkpt>
      <trkpt lat="50.39764" lon="3.22256">
        <ele>54.421925</ele>
        <time>2012-11-10T12:33:33Z</time>
      </trkpt>
      <trkpt lat="50.39769" lon="3.22228">
        <ele>54.00795</ele>
        <time>2012-11-10T12:33:47Z</time>
      </trkpt>
      <trkpt lat="50.39772" lon="3.222">
        <ele>54.000454</ele>
        <time>2012-11-10T12:33:59Z</time>
      </trkpt>
      <trkpt lat="50.39776" lon="3.22171">
        <ele>53.07545</ele>
        <time>2012-11-10T12:34:11Z</time>
      </trkpt>
      <trkpt lat="50.39784" lon="3.22143">
        <ele>53.00195</ele>
        <time>2012-11-10T12:34:24Z</time>
      </trkpt>
      <trkpt lat="50.39794" lon="3.22117">
        <ele>53.000275</ele>
        <time>2012-11-10T12:34:37Z</time>
      </trkpt>
      <trkpt lat="50.39802" lon="3.2209">
        <ele>53.000507</ele>
        <time>2012-11-10T12:34:53Z</time>
      </trkpt>
      <trkpt lat="50.39807" lon="3.22059">
        <ele>53.000813</ele>
        <time>2012-11-10T12:35:10Z</time>
      </trkpt>
      <trkpt lat="50.39807" lon="3.2203">
        <ele>53.001057</ele>
        <time>2012-11-10T12:35:24Z</time>
      </trkpt>
      <trkpt lat="50.39804" lon="3.22002">
        <ele>53.000477</ele>
        <time>2012-11-10T12:35:35Z</time>
      </trkpt>
      <trkpt lat="50.39806" lon="3.21972">
        <ele>52.9987</ele>
        <time>2012-11-10T12:35:43Z</time>
      </trkpt>
      <trkpt lat="50.39817" lon="3.21945">
        <ele>52.99868</ele>
        <time>2012-11-10T12:35:50Z</time>
      </trkpt>
      <trkpt lat="50.39827" lon="3.2192">
        <ele>53.89918</ele>
        <time>2012-11-10T12:36:00Z</time>
      </trkpt>
      <trkpt lat="50.39837" lon="3.21896">
        <ele>54.431347</ele>
        <time>2012-11-10T12:36:10Z</time>
      </trkpt>
      <trkpt lat="50.39848" lon="3.21873">
        <ele>54.9819</ele>
        <time>2012-11-10T12:36:22Z</time>
      </trkpt>
      <trkpt lat="50.39857" lon="3.21847">
        <ele>55.924297</ele>
        <time>2012-11-10T12:36:34Z</time>
      </trkpt>
      <trkpt lat="50.39865" lon="3.21822">
        <ele>56.76018</ele>
        <time>2012-11-10T12:36:46Z</time>
      </trkpt>
      <trkpt lat="50.39876" lon="3.21799">
        <ele>56.994503</ele>
        <time>2012-11-10T12:36:59Z</time>
      </trkpt>
      <trkpt lat="50.3991" lon="3.218">
        <ele>57.23656</ele>
        <time>2012-11-10T12:37:09Z</time>
      </trkpt>
      <trkpt lat="50.3993" lon="3.21792">
        <ele>57.418716</ele>
        <time>2012-11-10T12:37:10Z</time>
      </trkpt>
      <trkpt lat="50.39961" lon="3.21779">
        <ele>57.90979</ele>
        <time>2012-11-10T12:37:12Z</time>
      </trkpt>
      <trkpt lat="50.40021" lon="3.21745">
        <ele>58.17775</ele>
        <time>2012-11-10T12:37:13Z</time>
      </trkpt>
      <trkpt lat="50.40042" lon="3.21733">
        <ele>58.38038</ele>
        <time>2012-11-10T12:37:14Z</time>
      </trkpt>
      <trkpt lat="50.40058" lon="3.21714">
        <ele>58.64787</ele>
        <time>2012-11-10T12:37:16Z</time>
      </trkpt>
      <trkpt lat="50.40073" lon="3.21694">
        <ele>58.914345</ele>
        <time>2012-11-10T12:37:21Z</time>
      </trkpt>
      <trkpt lat="50.40061" lon="3.21722">
        <ele>64.50936</ele>
        <time>2012-11-10T12:39:07Z</time>
      </trkpt>
      <trkpt lat="50.3998" lon="3.21751">
        <ele>64.73243</ele>
        <time>2012-11-10T12:39:09Z</time>
      </trkpt>
      <trkpt lat="50.39952" lon="3.21755">
        <ele>64.80216</ele>
        <time>2012-11-10T12:39:10Z</time>
      </trkpt>
      <trkpt lat="50.39932" lon="3.21761">
        <ele>64.60406</ele>
        <time>2012-11-10T12:39:11Z</time>
      </trkpt>
      <trkpt lat="50.39914" lon="3.21766">
        <ele>64.342445</ele>
        <time>2012-11-10T12:39:13Z</time>
      </trkpt>
      <trkpt lat="50.39918" lon="3.21816">
        <ele>64.203995</ele>
        <time>2012-11-10T12:39:16Z</time>
      </trkpt>
      <trkpt lat="50.39905" lon="3.22139">
        <ele>64.119286</ele>
        <time>2012-11-10T12:39:17Z</time>
      </trkpt>
      <trkpt lat="50.39911" lon="3.22222">
        <ele>64.08946</ele>
        <time>2012-11-10T12:39:18Z</time>
      </trkpt>
      <trkpt lat="50.39833" lon="3.22038">
        <ele>64.0671</ele>
        <time>2012-11-10T12:39:20Z</time>
      </trkpt>
      <trkpt lat="50.39818" lon="3.22015">
        <ele>64.05032</ele>
        <time>2012-11-10T12:39:21Z</time>
      </trkpt>
      <trkpt lat="50.39797" lon="3.22007">
        <ele>63.787743</ele>
        <time>2012-11-10T12:39:25Z</time>
      </trkpt>
      <trkpt lat="50.39784" lon="3.21983">
        <ele>63.193104</ele>
        <time>2012-11-10T12:39:27Z</time>
      </trkpt>
      <trkpt lat="50.39769" lon="3.21924">
        <ele>62.23362</ele>
        <time>2012-11-10T12:39:29Z</time>
      </trkpt>
      <trkpt lat="50.39757" lon="3.219">
        <ele>61.675217</ele>
        <time>2012-11-10T12:39:30Z</time>
      </trkpt>
      <trkpt lat="50.39755" lon="3.2187">
        <ele>61.256413</ele>
        <time>2012-11-10T12:39:31Z</time>
      </trkpt>
      <trkpt lat="50.39736" lon="3.2182">
        <ele>60.69231</ele>
        <time>2012-11-10T12:39:32Z</time>
      </trkpt>
      <trkpt lat="50.39723" lon="3.21779">
        <ele>60.269234</ele>
        <time>2012-11-10T12:39:33Z</time>
      </trkpt>
      <trkpt lat="50.39712" lon="3.21744">
        <ele>59.27636</ele>
        <time>2012-11-10T12:39:35Z</time>
      </trkpt>
      <trkpt lat="50.39703" lon="3.21717">
        <ele>58.28027</ele>
        <time>2012-11-10T12:39:37Z</time>
      </trkpt>
      <trkpt lat="50.39693" lon="3.21682">
        <ele>57.72001</ele>
        <time>2012-11-10T12:39:39Z</time>
      </trkpt>
      <trkpt lat="50.39682" lon="3.21648">
        <ele>56.106487</ele>
        <time>2012-11-10T12:39:43Z</time>
      </trkpt>
      <trkpt lat="50.39675" lon="3.2162">
        <ele>54.666298</ele>
        <time>2012-11-10T12:39:47Z</time>
      </trkpt>
      <trkpt lat="50.39669" lon="3.21591">
        <ele>53.222134</ele>
        <time>2012-11-10T12:39:54Z</time>
      </trkpt>
      <trkpt lat="50.39665" lon="3.21562">
        <ele>51.36847</ele>
        <time>2012-11-10T12:40:04Z</time>
      </trkpt>
      <trkpt lat="50.39676" lon="3.21539">
        <ele>50.004265</ele>
        <time>2012-11-10T12:40:25Z</time>
      </trkpt>
      <trkpt lat="50.39694" lon="3.21526">
        <ele>50.000328</ele>
        <time>2012-11-10T12:40:40Z</time>
      </trkpt>
      <trkpt lat="50.39712" lon="3.21526">
        <ele>50.82217</ele>
        <time>2012-11-10T12:40:53Z</time>
      </trkpt>
      <trkpt lat="50.39715" lon="3.21497">
        <ele>51.865616</ele>
        <time>2012-11-10T12:41:11Z</time>
      </trkpt>
      <trkpt lat="50.39711" lon="3.21469">
        <ele>53.73658</ele>
        <time>2012-11-10T12:41:25Z</time>
      </trkpt>
      <trkpt lat="50.39701" lon="3.21443">
        <ele>53.999603</ele>
        <time>2012-11-10T12:41:44Z</time>
      </trkpt>
      <trkpt lat="50.39696" lon="3.21413">
        <ele>53.999672</ele>
        <time>2012-11-10T12:41:50Z</time>
      </trkpt>
      <trkpt lat="50.3969" lon="3.21383">
        <ele>54.250053</ele>
        <time>2012-11-10T12:42:02Z</time>
      </trkpt>
      <trkpt lat="50.39682" lon="3.21358">
        <ele>54.97623</ele>
        <time>2012-11-10T12:42:14Z</time>
      </trkpt>
      <trkpt lat="50.39671" lon="3.21334">
        <ele>55.249264</ele>
        <time>2012-11-10T12:42:26Z</time>
      </trkpt>
      <trkpt lat="50.39664" lon="3.21309">
        <ele>55.98218</ele>
        <time>2012-11-10T12:42:39Z</time>
      </trkpt>
      <trkpt lat="50.39657" lon="3.2128">
        <ele>56.2496</ele>
        <time>2012-11-10T12:42:52Z</time>
      </trkpt>
      <trkpt lat="50.39654" lon="3.21252">
        <ele>56.98222</ele>
        <time>2012-11-10T12:43:05Z</time>
      </trkpt>
      <trkpt lat="50.39653" lon="3.21224">
        <ele>57.94329</ele>
        <time>2012-11-10T12:43:18Z</time>
      </trkpt>
      <trkpt lat="50.39651" lon="3.21195">
        <ele>58.86475</ele>
        <time>2012-11-10T12:43:30Z</time>
      </trkpt>
      <trkpt lat="50.3965" lon="3.21166">
        <ele>59.758415</ele>
        <time>2012-11-10T12:43:42Z</time>
      </trkpt>
      <trkpt lat="50.39648" lon="3.21135">
        <ele>60.755047</ele>
        <time>2012-11-10T12:43:54Z</time>
      </trkpt>
      <trkpt lat="50.39649" lon="3.21105">
        <ele>61.2442</ele>
        <time>2012-11-10T12:44:07Z</time>
      </trkpt>
      <trkpt lat="50.39653" lon="3.21077">
        <ele>61.732143</ele>
        <time>2012-11-10T12:44:20Z</time>
      </trkpt>
      <trkpt lat="50.39659" lon="3.2105">
        <ele>61.030903</ele>
        <time>2012-11-10T12:44:31Z</time>
      </trkpt>
      <trkpt lat="50.39661" lon="3.21021">
        <ele>61.001022</ele>
        <time>2012-11-10T12:44:43Z</time>
      </trkpt>
      <trkpt lat="50.39666" lon="3.20995">
        <ele>61.0001</ele>
        <time>2012-11-10T12:44:56Z</time>
      </trkpt>
      <trkpt lat="50.39672" lon="3.20968">
        <ele>61.0001</ele>
        <time>2012-11-10T12:45:10Z</time>
      </trkpt>
      <trkpt lat="50.39672" lon="3.20939">
        <ele>60.074947</ele>
        <time>2012-11-10T12:45:25Z</time>
      </trkpt>
      <trkpt lat="50.39681" lon="3.20912">
        <ele>60.761623</ele>
        <time>2012-11-10T12:45:39Z</time>
      </trkpt>
      <trkpt lat="50.39682" lon="3.20883">
        <ele>60.98186</ele>
        <time>2012-11-10T12:45:48Z</time>
      </trkpt>
      <trkpt lat="50.39684" lon="3.20855">
        <ele>61.00001</ele>
        <time>2012-11-10T12:46:08Z</time>
      </trkpt>
      <trkpt lat="50.39689" lon="3.20826">
        <ele>60.99991</ele>
        <time>2012-11-10T12:46:23Z</time>
      </trkpt>
      <trkpt lat="50.39694" lon="3.20798">
        <ele>61.899895</ele>
        <time>2012-11-10T12:46:36Z</time>
      </trkpt>
      <trkpt lat="50.39702" lon="3.20771">
        <ele>61.99871</ele>
        <time>2012-11-10T12:46:51Z</time>
      </trkpt>
      <trkpt lat="50.39703" lon="3.20742">
        <ele>62.986675</ele>
        <time>2012-11-10T12:47:07Z</time>
      </trkpt>
      <trkpt lat="50.39712" lon="3.20716">
        <ele>62.99997</ele>
        <time>2012-11-10T12:47:25Z</time>
      </trkpt>
      <trkpt lat="50.39718" lon="3.20687">
        <ele>62.07512</ele>
        <time>2012-11-10T12:47:40Z</time>
      </trkpt>
      <trkpt lat="50.39723" lon="3.20659">
        <ele>62.001816</ele>
        <time>2012-11-10T12:47:53Z</time>
      </trkpt>
      <trkpt lat="50.39729" lon="3.20631">
        <ele>62.000065</ele>
        <time>2012-11-10T12:48:06Z</time>
      </trkpt>
      <trkpt lat="50.39724" lon="3.20602">
        <ele>62.000137</ele>
        <time>2012-11-10T12:48:24Z</time>
      </trkpt>
      <trkpt lat="50.3973" lon="3.20575">
        <ele>61.999985</ele>
        <time>2012-11-10T12:48:37Z</time>
      </trkpt>
      <trkpt lat="50.39737" lon="3.20547">
        <ele>62.000027</ele>
        <time>2012-11-10T12:48:51Z</time>
      </trkpt>
      <trkpt lat="50.39745" lon="3.20521">
        <ele>62.000034</ele>
        <time>2012-11-10T12:49:05Z</time>
      </trkpt>
      <trkpt lat="50.39747" lon="3.20491">
        <ele>60.19587</ele>
        <time>2012-11-10T12:49:23Z</time>
      </trkpt>
      <trkpt lat="50.3976" lon="3.20469">
        <ele>59.104862</ele>
        <time>2012-11-10T12:49:36Z</time>
      </trkpt>
      <trkpt lat="50.39772" lon="3.20448">
        <ele>59.00261</ele>
        <time>2012-11-10T12:49:49Z</time>
      </trkpt>
      <trkpt lat="50.39787" lon="3.20429">
        <ele>58.133614</ele>
        <time>2012-11-10T12:50:00Z</time>
      </trkpt>
      <trkpt lat="50.39804" lon="3.20413">
        <ele>58.68788</ele>
        <time>2012-11-10T12:50:12Z</time>
      </trkpt>
      <trkpt lat="50.39819" lon="3.20396">
        <ele>58.992683</ele>
        <time>2012-11-10T12:50:25Z</time>
      </trkpt>
      <trkpt lat="50.39836" lon="3.20382">
        <ele>58.99997</ele>
        <time>2012-11-10T12:50:39Z</time>
      </trkpt>
      <trkpt lat="50.39852" lon="3.20368">
        <ele>59.000034</ele>
        <time>2012-11-10T12:50:52Z</time>
      </trkpt>
      <trkpt lat="50.39869" lon="3.20352">
        <ele>59.000046</ele>
        <time>2012-11-10T12:51:04Z</time>
      </trkpt>
      <trkpt lat="50.39882" lon="3.20332">
        <ele>59.000164</ele>
        <time>2012-11-10T12:51:19Z</time>
      </trkpt>
      <trkpt lat="50.39875" lon="3.20306">
        <ele>58.999954</ele>
        <time>2012-11-10T12:51:46Z</time>
      </trkpt>
      <trkpt lat="50.39869" lon="3.20279">
        <ele>59</ele>
        <time>2012-11-10T12:52:02Z</time>
      </trkpt>
      <trkpt lat="50.3985" lon="3.20301">
        <ele>59</ele>
        <time>2012-11-10T12:53:51Z</time>
      </trkpt>
      <trkpt lat="50.39836" lon="3.20282">
        <ele>58.999958</ele>
        <time>2012-11-10T12:54:25Z</time>
      </trkpt>
      <trkpt lat="50.39818" lon="3.20291">
        <ele>59.86641</ele>
        <time>2012-11-10T12:54:35Z</time>
      </trkpt>
      <trkpt lat="50.39803" lon="3.20308">
        <ele>59.97612</ele>
        <time>2012-11-10T12:54:41Z</time>
      </trkpt>
      <trkpt lat="50.39789" lon="3.20326">
        <ele>60.68281</ele>
        <time>2012-11-10T12:54:53Z</time>
      </trkpt>
      <trkpt lat="50.39773" lon="3.20343">
        <ele>61.93799</ele>
        <time>2012-11-10T12:55:07Z</time>
      </trkpt>
      <trkpt lat="50.39755" lon="3.20338">
        <ele>62.999893</ele>
        <time>2012-11-10T12:56:02Z</time>
      </trkpt>
      <trkpt lat="50.39737" lon="3.20328">
        <ele>62.99993</ele>
        <time>2012-11-10T12:56:15Z</time>
      </trkpt>
      <trkpt lat="50.39728" lon="3.20355">
        <ele>63.900043</ele>
        <time>2012-11-10T12:56:41Z</time>
      </trkpt>
      <trkpt lat="50.39733" lon="3.20385">
        <ele>63.976368</ele>
        <time>2012-11-10T12:56:46Z</time>
      </trkpt>
      <trkpt lat="50.39734" lon="3.20414">
        <ele>63.099773</ele>
        <time>2012-11-10T12:57:00Z</time>
      </trkpt>
      <trkpt lat="50.39722" lon="3.20436">
        <ele>63.82278</ele>
        <time>2012-11-10T12:57:17Z</time>
      </trkpt>
      <trkpt lat="50.39703" lon="3.2043">
        <ele>63.98217</ele>
        <time>2012-11-10T12:57:25Z</time>
      </trkpt>
      <trkpt lat="50.39684" lon="3.20422">
        <ele>63.99811</ele>
        <time>2012-11-10T12:57:33Z</time>
      </trkpt>
      <trkpt lat="50.39667" lon="3.20431">
        <ele>64.000145</ele>
        <time>2012-11-10T12:57:48Z</time>
      </trkpt>
      <trkpt lat="50.39658" lon="3.20406">
        <ele>64.000046</ele>
        <time>2012-11-10T12:58:22Z</time>
      </trkpt>
      <trkpt lat="50.39645" lon="3.20386">
        <ele>64.000084</ele>
        <time>2012-11-10T12:58:33Z</time>
      </trkpt>
      <trkpt lat="50.39633" lon="3.20358">
        <ele>64.94375</ele>
        <time>2012-11-10T12:59:07Z</time>
      </trkpt>
      <trkpt lat="50.39621" lon="3.20333">
        <ele>64.98187</ele>
        <time>2012-11-10T12:59:11Z</time>
      </trkpt>
      <trkpt lat="50.39605" lon="3.20309">
        <ele>64.99372</ele>
        <time>2012-11-10T12:59:15Z</time>
      </trkpt>
      <trkpt lat="50.39591" lon="3.20291">
        <ele>64.99754</ele>
        <time>2012-11-10T12:59:19Z</time>
      </trkpt>
      <trkpt lat="50.39576" lon="3.20273">
        <ele>65.92501</ele>
        <time>2012-11-10T12:59:35Z</time>
      </trkpt>
      <trkpt lat="50.3956" lon="3.20253">
        <ele>65.98964</ele>
        <time>2012-11-10T12:59:42Z</time>
      </trkpt>
      <trkpt lat="50.39547" lon="3.20232">
        <ele>65.99767</ele>
        <time>2012-11-10T12:59:48Z</time>
      </trkpt>
      <trkpt lat="50.39532" lon="3.20213">
        <ele>65.99941</ele>
        <time>2012-11-10T12:59:56Z</time>
      </trkpt>
      <trkpt lat="50.39517" lon="3.20196">
        <ele>66.57787</ele>
        <time>2012-11-10T13:00:05Z</time>
      </trkpt>
      <trkpt lat="50.39502" lon="3.20179">
        <ele>66.98206</ele>
        <time>2012-11-10T13:00:16Z</time>
      </trkpt>
      <trkpt lat="50.39487" lon="3.20165">
        <ele>66.99938</ele>
        <time>2012-11-10T13:00:28Z</time>
      </trkpt>
      <trkpt lat="50.39472" lon="3.20148">
        <ele>66.99996</ele>
        <time>2012-11-10T13:00:40Z</time>
      </trkpt>
      <trkpt lat="50.39455" lon="3.20136">
        <ele>66.99984</ele>
        <time>2012-11-10T13:00:50Z</time>
      </trkpt>
      <trkpt lat="50.39437" lon="3.20129">
        <ele>67.924835</ele>
        <time>2012-11-10T13:00:59Z</time>
      </trkpt>
      <trkpt lat="50.3942" lon="3.20117">
        <ele>69.728645</ele>
        <time>2012-11-10T13:01:11Z</time>
      </trkpt>
      <trkpt lat="50.39405" lon="3.20102">
        <ele>71.356026</ele>
        <time>2012-11-10T13:01:24Z</time>
      </trkpt>
      <trkpt lat="50.39389" lon="3.20086">
        <ele>72.80161</ele>
        <time>2012-11-10T13:01:36Z</time>
      </trkpt>
      <trkpt lat="50.39375" lon="3.20067">
        <ele>74.64724</ele>
        <time>2012-11-10T13:01:49Z</time>
      </trkpt>
      <trkpt lat="50.39357" lon="3.20059">
        <ele>75.924835</ele>
        <time>2012-11-10T13:02:16Z</time>
      </trkpt>
      <trkpt lat="50.39344" lon="3.20038">
        <ele>75.99687</ele>
        <time>2012-11-10T13:02:27Z</time>
      </trkpt>
      <trkpt lat="50.39337" lon="3.20011">
        <ele>76.00015</ele>
        <time>2012-11-10T13:02:40Z</time>
      </trkpt>
      <trkpt lat="50.39331" lon="3.19982">
        <ele>76.00007</ele>
        <time>2012-11-10T13:02:57Z</time>
      </trkpt>
      <trkpt lat="50.39325" lon="3.19955">
        <ele>75.99999</ele>
        <time>2012-11-10T13:03:08Z</time>
      </trkpt>
      <trkpt lat="50.39307" lon="3.19941">
        <ele>76.00003</ele>
        <time>2012-11-10T13:03:21Z</time>
      </trkpt>
      <trkpt lat="50.39295" lon="3.1992">
        <ele>76.000114</ele>
        <time>2012-11-10T13:03:35Z</time>
      </trkpt>
      <trkpt lat="50.393" lon="3.19893">
        <ele>76.000046</ele>
        <time>2012-11-10T13:03:46Z</time>
      </trkpt>
      <trkpt lat="50.39307" lon="3.19866">
        <ele>76.00007</ele>
        <time>2012-11-10T13:04:01Z</time>
      </trkpt>
      <trkpt lat="50.39314" lon="3.1984">
        <ele>76.00014</ele>
        <time>2012-11-10T13:04:14Z</time>
      </trkpt>
      <trkpt lat="50.39323" lon="3.19814">
        <ele>76.000374</ele>
        <time>2012-11-10T13:04:26Z</time>
      </trkpt>
      <trkpt lat="50.39334" lon="3.1979">
        <ele>76.89995</ele>
        <time>2012-11-10T13:04:37Z</time>
      </trkpt>
      <trkpt lat="50.39322" lon="3.19767">
        <ele>76.99664</ele>
        <time>2012-11-10T13:04:49Z</time>
      </trkpt>
      <trkpt lat="50.39306" lon="3.19753">
        <ele>76.99995</ele>
        <time>2012-11-10T13:05:01Z</time>
      </trkpt>
      <trkpt lat="50.39288" lon="3.19757">
        <ele>77.00004</ele>
        <time>2012-11-10T13:05:14Z</time>
      </trkpt>
      <trkpt lat="50.3927" lon="3.19754">
        <ele>77.12174</ele>
        <time>2012-11-10T13:05:28Z</time>
      </trkpt>
      <trkpt lat="50.39252" lon="3.19745">
        <ele>77.00124</ele>
        <time>2012-11-10T13:05:44Z</time>
      </trkpt>
      <trkpt lat="50.39236" lon="3.19732">
        <ele>77.00016</ele>
        <time>2012-11-10T13:06:00Z</time>
      </trkpt>
      <trkpt lat="50.39217" lon="3.19738">
        <ele>77.82208</ele>
        <time>2012-11-10T13:06:14Z</time>
      </trkpt>
      <trkpt lat="50.39198" lon="3.19739">
        <ele>77.99581</ele>
        <time>2012-11-10T13:06:27Z</time>
      </trkpt>
      <trkpt lat="50.39179" lon="3.19739">
        <ele>77.99993</ele>
        <time>2012-11-10T13:06:40Z</time>
      </trkpt>
      <trkpt lat="50.39161" lon="3.19739">
        <ele>78.00006</ele>
        <time>2012-11-10T13:06:52Z</time>
      </trkpt>
      <trkpt lat="50.39142" lon="3.19735">
        <ele>77.10018</ele>
        <time>2012-11-10T13:07:07Z</time>
      </trkpt>
      <trkpt lat="50.39124" lon="3.19742">
        <ele>77.77014</ele>
        <time>2012-11-10T13:07:16Z</time>
      </trkpt>
      <trkpt lat="50.39105" lon="3.19744">
        <ele>78.81228</ele>
        <time>2012-11-10T13:07:27Z</time>
      </trkpt>
      <trkpt lat="50.39087" lon="3.19745">
        <ele>79.86059</ele>
        <time>2012-11-10T13:07:39Z</time>
      </trkpt>
      <trkpt lat="50.39068" lon="3.19749">
        <ele>80.897484</ele>
        <time>2012-11-10T13:07:53Z</time>
      </trkpt>
      <trkpt lat="50.39051" lon="3.19759">
        <ele>81.75943</ele>
        <time>2012-11-10T13:08:05Z</time>
      </trkpt>
      <trkpt lat="50.39034" lon="3.19771">
        <ele>82.89673</ele>
        <time>2012-11-10T13:08:20Z</time>
      </trkpt>
      <trkpt lat="50.39019" lon="3.19789">
        <ele>84.000114</ele>
        <time>2012-11-10T13:09:06Z</time>
      </trkpt>
      <trkpt lat="50.39011" lon="3.19815">
        <ele>84.00009</ele>
        <time>2012-11-10T13:09:19Z</time>
      </trkpt>
      <trkpt lat="50.39" lon="3.19838">
        <ele>83.999985</ele>
        <time>2012-11-10T13:09:33Z</time>
      </trkpt>
      <trkpt lat="50.38989" lon="3.19862">
        <ele>83.99997</ele>
        <time>2012-11-10T13:09:47Z</time>
      </trkpt>
      <trkpt lat="50.38971" lon="3.19858">
        <ele>84.00044</ele>
        <time>2012-11-10T13:10:08Z</time>
      </trkpt>
      <trkpt lat="50.38957" lon="3.19841">
        <ele>84.00041</ele>
        <time>2012-11-10T13:10:26Z</time>
      </trkpt>
      <trkpt lat="50.38973" lon="3.19826">
        <ele>83.75004</ele>
        <time>2012-11-10T13:10:42Z</time>
      </trkpt>
      <trkpt lat="50.38959" lon="3.19847">
        <ele>83.07509</ele>
        <time>2012-11-10T13:10:50Z</time>
      </trkpt>
      <trkpt lat="50.38948" lon="3.19823">
        <ele>83.000496</ele>
        <time>2012-11-10T13:11:25Z</time>
      </trkpt>
      <trkpt lat="50.38934" lon="3.19803">
        <ele>83.00001</ele>
        <time>2012-11-10T13:11:40Z</time>
      </trkpt>
      <trkpt lat="50.38915" lon="3.19795">
        <ele>83.00001</ele>
        <time>2012-11-10T13:11:57Z</time>
      </trkpt>
      <trkpt lat="50.38899" lon="3.19781">
        <ele>82.99997</ele>
        <time>2012-11-10T13:12:25Z</time>
      </trkpt>
      <trkpt lat="50.3888" lon="3.19779">
        <ele>82.31637</ele>
        <time>2012-11-10T13:12:34Z</time>
      </trkpt>
      <trkpt lat="50.38861" lon="3.19778">
        <ele>81.00005</ele>
        <time>2012-11-10T13:13:37Z</time>
      </trkpt>
      <trkpt lat="50.38842" lon="3.19774">
        <ele>81</ele>
        <time>2012-11-10T13:13:49Z</time>
      </trkpt>
      <trkpt lat="50.38824" lon="3.19775">
        <ele>81.00002</ele>
        <time>2012-11-10T13:14:05Z</time>
      </trkpt>
      <trkpt lat="50.3882" lon="3.19803">
        <ele>80.75003</ele>
        <time>2012-11-10T13:14:29Z</time>
      </trkpt>
      <trkpt lat="50.38802" lon="3.19809">
        <ele>80.00422</ele>
        <time>2012-11-10T13:14:47Z</time>
      </trkpt>
      <trkpt lat="50.38789" lon="3.19789">
        <ele>79.0179</ele>
        <time>2012-11-10T13:15:02Z</time>
      </trkpt>
      <trkpt lat="50.38785" lon="3.19759">
        <ele>78.056755</ele>
        <time>2012-11-10T13:15:15Z</time>
      </trkpt>
      <trkpt lat="50.38784" lon="3.1973">
        <ele>77.10192</ele>
        <time>2012-11-10T13:15:27Z</time>
      </trkpt>
      <trkpt lat="50.3879" lon="3.19702">
        <ele>76.31826</ele>
        <time>2012-11-10T13:15:41Z</time>
      </trkpt>
      <trkpt lat="50.388" lon="3.19677">
        <ele>76.00425</ele>
        <time>2012-11-10T13:15:56Z</time>
      </trkpt>
      <trkpt lat="50.38804" lon="3.19649">
        <ele>76.00008</ele>
        <time>2012-11-10T13:16:09Z</time>
      </trkpt>
      <trkpt lat="50.38809" lon="3.1962">
        <ele>76.000015</ele>
        <time>2012-11-10T13:16:22Z</time>
      </trkpt>
      <trkpt lat="50.38816" lon="3.19593">
        <ele>76.00002</ele>
        <time>2012-11-10T13:16:36Z</time>
      </trkpt>
      <trkpt lat="50.38821" lon="3.19565">
        <ele>76.00006</ele>
        <time>2012-11-10T13:16:49Z</time>
      </trkpt>
      <trkpt lat="50.38825" lon="3.19538">
        <ele>75.99998</ele>
        <time>2012-11-10T13:17:00Z</time>
      </trkpt>
      <trkpt lat="50.38826" lon="3.19507">
        <ele>75.05622</ele>
        <time>2012-11-10T13:17:10Z</time>
      </trkpt>
      <trkpt lat="50.38829" lon="3.19477">
        <ele>75.00411</ele>
        <time>2012-11-10T13:17:19Z</time>
      </trkpt>
      <trkpt lat="50.38831" lon="3.19449">
        <ele>75.000534</ele>
        <time>2012-11-10T13:17:30Z</time>
      </trkpt>
      <trkpt lat="50.38846" lon="3.19427">
        <ele>73.87602</ele>
        <time>2012-11-10T13:17:42Z</time>
      </trkpt>
      <trkpt lat="50.38867" lon="3.19417">
        <ele>72.44553</ele>
        <time>2012-11-10T13:17:47Z</time>
      </trkpt>
      <trkpt lat="50.38886" lon="3.19404">
        <ele>72.82485</ele>
        <time>2012-11-10T13:17:52Z</time>
      </trkpt>
      <trkpt lat="50.38838" lon="3.19414">
        <ele>100</ele>
        <time>2012-11-10T13:18:53Z</time>
      </trkpt>
      <trkpt lat="50.38852" lon="3.19393">
        <ele>86.118774</ele>
        <time>2012-11-10T13:19:17Z</time>
      </trkpt>
      <trkpt lat="50.38862" lon="3.19368">
        <ele>82</ele>
        <time>2012-11-10T13:20:06Z</time>
      </trkpt>
      <trkpt lat="50.38875" lon="3.19349">
        <ele>81.05631</ele>
        <time>2012-11-10T13:20:17Z</time>
      </trkpt>
      <trkpt lat="50.38885" lon="3.19325">
        <ele>80.13528</ele>
        <time>2012-11-10T13:20:29Z</time>
      </trkpt>
      <trkpt lat="50.38897" lon="3.19302">
        <ele>80.002426</ele>
        <time>2012-11-10T13:20:43Z</time>
      </trkpt>
      <trkpt lat="50.38908" lon="3.19278">
        <ele>79.02383</ele>
        <time>2012-11-10T13:20:56Z</time>
      </trkpt>
      <trkpt lat="50.38915" lon="3.1925">
        <ele>79.000595</ele>
        <time>2012-11-10T13:21:09Z</time>
      </trkpt>
      <trkpt lat="50.38926" lon="3.19225">
        <ele>79.00003</ele>
        <time>2012-11-10T13:21:22Z</time>
      </trkpt>
      <trkpt lat="50.38934" lon="3.19199">
        <ele>79.000015</ele>
        <time>2012-11-10T13:21:34Z</time>
      </trkpt>
      <trkpt lat="50.38937" lon="3.19171">
        <ele>79.000175</ele>
        <time>2012-11-10T13:22:02Z</time>
      </trkpt>
      <trkpt lat="50.38944" lon="3.19145">
        <ele>78.99982</ele>
        <time>2012-11-10T13:22:08Z</time>
      </trkpt>
      <trkpt lat="50.38952" lon="3.19119">
        <ele>78.999756</ele>
        <time>2012-11-10T13:22:14Z</time>
      </trkpt>
      <trkpt lat="50.3896" lon="3.19092">
        <ele>78.99992</ele>
        <time>2012-11-10T13:22:23Z</time>
      </trkpt>
      <trkpt lat="50.38965" lon="3.19063">
        <ele>78.999985</ele>
        <time>2012-11-10T13:22:34Z</time>
      </trkpt>
      <trkpt lat="50.38973" lon="3.19038">
        <ele>78.999985</ele>
        <time>2012-11-10T13:22:45Z</time>
      </trkpt>
      <trkpt lat="50.38979" lon="3.1901">
        <ele>79.00003</ele>
        <time>2012-11-10T13:22:57Z</time>
      </trkpt>
      <trkpt lat="50.38982" lon="3.18981">
        <ele>78.0317</ele>
        <time>2012-11-10T13:23:10Z</time>
      </trkpt>
      <trkpt lat="50.38986" lon="3.18952">
        <ele>78.00138</ele>
        <time>2012-11-10T13:23:21Z</time>
      </trkpt>
      <trkpt lat="50.38992" lon="3.18925">
        <ele>78.00009</ele>
        <time>2012-11-10T13:23:34Z</time>
      </trkpt>
      <trkpt lat="50.38999" lon="3.18898">
        <ele>78.00007</ele>
        <time>2012-11-10T13:23:47Z</time>
      </trkpt>
      <trkpt lat="50.39004" lon="3.1887">
        <ele>78.00003</ele>
        <time>2012-11-10T13:23:58Z</time>
      </trkpt>
      <trkpt lat="50.39013" lon="3.18843">
        <ele>77.13351</ele>
        <time>2012-11-10T13:24:10Z</time>
      </trkpt>
      <trkpt lat="50.39021" lon="3.18818">
        <ele>77.004295</ele>
        <time>2012-11-10T13:24:22Z</time>
      </trkpt>
      <trkpt lat="50.39025" lon="3.18788">
        <ele>77.00015</ele>
        <time>2012-11-10T13:24:35Z</time>
      </trkpt>
      <trkpt lat="50.39031" lon="3.18761">
        <ele>77.00006</ele>
        <time>2012-11-10T13:24:48Z</time>
      </trkpt>
      <trkpt lat="50.39035" lon="3.18733">
        <ele>77.00002</ele>
        <time>2012-11-10T13:25:03Z</time>
      </trkpt>
      <trkpt lat="50.39038" lon="3.18704">
        <ele>76.99999</ele>
        <time>2012-11-10T13:25:16Z</time>
      </trkpt>
      <trkpt lat="50.39039" lon="3.18676">
        <ele>76.99991</ele>
        <time>2012-11-10T13:25:31Z</time>
      </trkpt>
      <trkpt lat="50.3904" lon="3.18646">
        <ele>76.09937</ele>
        <time>2012-11-10T13:25:44Z</time>
      </trkpt>
      <trkpt lat="50.39048" lon="3.1862">
        <ele>76.012344</ele>
        <time>2012-11-10T13:25:51Z</time>
      </trkpt>
      <trkpt lat="50.39059" lon="3.18596">
        <ele>76.00045</ele>
        <time>2012-11-10T13:26:00Z</time>
      </trkpt>
      <trkpt lat="50.39075" lon="3.18582">
        <ele>75.05614</ele>
        <time>2012-11-10T13:26:10Z</time>
      </trkpt>
      <trkpt lat="50.39086" lon="3.18557">
        <ele>75.00302</ele>
        <time>2012-11-10T13:26:20Z</time>
      </trkpt>
      <trkpt lat="50.39079" lon="3.1853">
        <ele>75.00025</ele>
        <time>2012-11-10T13:26:35Z</time>
      </trkpt>
      <trkpt lat="50.39062" lon="3.18521">
        <ele>74.04229</ele>
        <time>2012-11-10T13:26:48Z</time>
      </trkpt>
      <trkpt lat="50.39054" lon="3.18547">
        <ele>73.75117</ele>
        <time>2012-11-10T13:27:00Z</time>
      </trkpt>
      <trkpt lat="50.39044" lon="3.18571">
        <ele>72.14337</ele>
        <time>2012-11-10T13:27:15Z</time>
      </trkpt>
      <trkpt lat="50.39035" lon="3.18598">
        <ele>70.34268</ele>
        <time>2012-11-10T13:27:29Z</time>
      </trkpt>
      <trkpt lat="50.3903" lon="3.18626">
        <ele>69.24536</ele>
        <time>2012-11-10T13:27:42Z</time>
      </trkpt>
      <trkpt lat="50.39024" lon="3.18655">
        <ele>69.005745</ele>
        <time>2012-11-10T13:27:55Z</time>
      </trkpt>
      <trkpt lat="50.39018" lon="3.18681">
        <ele>68.056435</ele>
        <time>2012-11-10T13:28:07Z</time>
      </trkpt>
      <trkpt lat="50.39011" lon="3.18708">
        <ele>68.00131</ele>
        <time>2012-11-10T13:28:20Z</time>
      </trkpt>
      <trkpt lat="50.39008" lon="3.18737">
        <ele>66.08079</ele>
        <time>2012-11-10T13:29:06Z</time>
      </trkpt>
      <trkpt lat="50.39003" lon="3.18765">
        <ele>65.75053</ele>
        <time>2012-11-10T13:29:23Z</time>
      </trkpt>
      <trkpt lat="50.38993" lon="3.1879">
        <ele>65.009964</ele>
        <time>2012-11-10T13:29:38Z</time>
      </trkpt>
      <trkpt lat="50.38987" lon="3.18818">
        <ele>65.00033</ele>
        <time>2012-11-10T13:29:50Z</time>
      </trkpt>
      <trkpt lat="50.3898" lon="3.18845">
        <ele>64.100136</ele>
        <time>2012-11-10T13:30:02Z</time>
      </trkpt>
      <trkpt lat="50.38971" lon="3.18871">
        <ele>64.00313</ele>
        <time>2012-11-10T13:30:14Z</time>
      </trkpt>
      <trkpt lat="50.38955" lon="3.18886">
        <ele>64.00004</ele>
        <time>2012-11-10T13:30:26Z</time>
      </trkpt>
      <trkpt lat="50.38949" lon="3.18915">
        <ele>63.99996</ele>
        <time>2012-11-10T13:30:42Z</time>
      </trkpt>
      <trkpt lat="50.38943" lon="3.18943">
        <ele>63.23732</ele>
        <time>2012-11-10T13:30:53Z</time>
      </trkpt>
      <trkpt lat="50.38936" lon="3.18971">
        <ele>63.007496</ele>
        <time>2012-11-10T13:31:05Z</time>
      </trkpt>
      <trkpt lat="50.38928" lon="3.18999">
        <ele>62.99995</ele>
        <time>2012-11-10T13:31:17Z</time>
      </trkpt>
      <trkpt lat="50.38912" lon="3.19018">
        <ele>63.99975</ele>
        <time>2012-11-10T13:31:32Z</time>
      </trkpt>
      <trkpt lat="50.38921" lon="3.19044">
        <ele>63.133488</ele>
        <time>2012-11-10T13:31:41Z</time>
      </trkpt>
      <trkpt lat="50.38913" lon="3.1907">
        <ele>61.598396</ele>
        <time>2012-11-10T13:31:53Z</time>
      </trkpt>
      <trkpt lat="50.38905" lon="3.19096">
        <ele>61.01066</ele>
        <time>2012-11-10T13:32:07Z</time>
      </trkpt>
      <trkpt lat="50.38899" lon="3.19124">
        <ele>61.00034</ele>
        <time>2012-11-10T13:32:19Z</time>
      </trkpt>
      <trkpt lat="50.38891" lon="3.19151">
        <ele>60.133488</ele>
        <time>2012-11-10T13:32:31Z</time>
      </trkpt>
      <trkpt lat="50.38883" lon="3.19178">
        <ele>60.00316</ele>
        <time>2012-11-10T13:32:44Z</time>
      </trkpt>
      <trkpt lat="50.38871" lon="3.19201">
        <ele>59.99997</ele>
        <time>2012-11-10T13:33:11Z</time>
      </trkpt>
      <trkpt lat="50.38856" lon="3.19184">
        <ele>58.999924</ele>
        <time>2012-11-10T13:34:27Z</time>
      </trkpt>
      <trkpt lat="50.38848" lon="3.19158">
        <ele>61.42748</ele>
        <time>2012-11-10T13:36:53Z</time>
      </trkpt>
      <trkpt lat="50.38834" lon="3.1914">
        <ele>61.989803</ele>
        <time>2012-11-10T13:37:07Z</time>
      </trkpt>
      <trkpt lat="50.38827" lon="3.19114">
        <ele>61.99994</ele>
        <time>2012-11-10T13:37:25Z</time>
      </trkpt>
      <trkpt lat="50.38811" lon="3.19097">
        <ele>63.821613</ele>
        <time>2012-11-10T13:38:13Z</time>
      </trkpt>
      <trkpt lat="50.38802" lon="3.19073">
        <ele>63.00556</ele>
        <time>2012-11-10T13:38:40Z</time>
      </trkpt>
      <trkpt lat="50.388" lon="3.19043">
        <ele>63.99249</ele>
        <time>2012-11-10T13:39:08Z</time>
      </trkpt>
      <trkpt lat="50.38791" lon="3.19018">
        <ele>63.999866</ele>
        <time>2012-11-10T13:39:22Z</time>
      </trkpt>
      <trkpt lat="50.388" lon="3.19044">
        <ele>63.00134</ele>
        <time>2012-11-10T13:40:41Z</time>
      </trkpt>
      <trkpt lat="50.38789" lon="3.19068">
        <ele>63.00001</ele>
        <time>2012-11-10T13:41:00Z</time>
      </trkpt>
      <trkpt lat="50.38772" lon="3.19077">
        <ele>63</ele>
        <time>2012-11-10T13:41:30Z</time>
      </trkpt>
      <trkpt lat="50.38759" lon="3.19096">
        <ele>63.000008</ele>
        <time>2012-11-10T13:41:50Z</time>
      </trkpt>
      <trkpt lat="50.38743" lon="3.19114">
        <ele>63.99999</ele>
        <time>2012-11-10T13:42:54Z</time>
      </trkpt>
      <trkpt lat="50.38729" lon="3.19134">
        <ele>63.10012</ele>
        <time>2012-11-10T13:43:09Z</time>
      </trkpt>
      <trkpt lat="50.38722" lon="3.19161">
        <ele>62.943768</ele>
        <time>2012-11-10T13:44:04Z</time>
      </trkpt>
      <trkpt lat="50.38717" lon="3.1919">
        <ele>62.997597</ele>
        <time>2012-11-10T13:44:15Z</time>
      </trkpt>
      <trkpt lat="50.3871" lon="3.19216">
        <ele>62.99974</ele>
        <time>2012-11-10T13:44:24Z</time>
      </trkpt>
      <trkpt lat="50.38698" lon="3.1924">
        <ele>62.999897</ele>
        <time>2012-11-10T13:44:33Z</time>
      </trkpt>
      <trkpt lat="50.38679" lon="3.19251">
        <ele>62.99985</ele>
        <time>2012-11-10T13:44:41Z</time>
      </trkpt>
      <trkpt lat="50.38663" lon="3.19264">
        <ele>62.99993</ele>
        <time>2012-11-10T13:44:50Z</time>
      </trkpt>
      <trkpt lat="50.38646" lon="3.19282">
        <ele>62.99943</ele>
        <time>2012-11-10T13:45:59Z</time>
      </trkpt>
      <trkpt lat="50.38637" lon="3.19308">
        <ele>62.177864</ele>
        <time>2012-11-10T13:46:06Z</time>
      </trkpt>
      <trkpt lat="50.38627" lon="3.19333">
        <ele>62.87985</ele>
        <time>2012-11-10T13:46:15Z</time>
      </trkpt>
      <trkpt lat="50.38619" lon="3.19358">
        <ele>62.998394</ele>
        <time>2012-11-10T13:46:30Z</time>
      </trkpt>
      <trkpt lat="50.38611" lon="3.19384">
        <ele>62.99998</ele>
        <time>2012-11-10T13:46:46Z</time>
      </trkpt>
      <trkpt lat="50.38593" lon="3.19378">
        <ele>62.999996</ele>
        <time>2012-11-10T13:48:16Z</time>
      </trkpt>
      <trkpt lat="50.38576" lon="3.19389">
        <ele>62.17798</ele>
        <time>2012-11-10T13:48:29Z</time>
      </trkpt>
      <trkpt lat="50.38564" lon="3.19411">
        <ele>62.00751</ele>
        <time>2012-11-10T13:48:40Z</time>
      </trkpt>
      <trkpt lat="50.3855" lon="3.1943">
        <ele>62.97643</ele>
        <time>2012-11-10T13:48:53Z</time>
      </trkpt>
      <trkpt lat="50.38531" lon="3.19433">
        <ele>62.00075</ele>
        <time>2012-11-10T13:49:46Z</time>
      </trkpt>
      <trkpt lat="50.38515" lon="3.1945">
        <ele>62.000023</ele>
        <time>2012-11-10T13:49:58Z</time>
      </trkpt>
      <trkpt lat="50.38502" lon="3.19471">
        <ele>62.866524</ele>
        <time>2012-11-10T13:50:10Z</time>
      </trkpt>
      <trkpt lat="50.38487" lon="3.19489">
        <ele>63.863346</ele>
        <time>2012-11-10T13:50:23Z</time>
      </trkpt>
      <trkpt lat="50.3847" lon="3.19501">
        <ele>64.43427</ele>
        <time>2012-11-10T13:50:36Z</time>
      </trkpt>
      <trkpt lat="50.38451" lon="3.19502">
        <ele>65.00001</ele>
        <time>2012-11-10T13:51:14Z</time>
      </trkpt>
      <trkpt lat="50.38434" lon="3.19491">
        <ele>65.000015</ele>
        <time>2012-11-10T13:51:28Z</time>
      </trkpt>
      <trkpt lat="50.38423" lon="3.19464">
        <ele>65</ele>
        <time>2012-11-10T13:51:35Z</time>
      </trkpt>
      <trkpt lat="50.38411" lon="3.19441">
        <ele>64.237305</ele>
        <time>2012-11-10T13:51:45Z</time>
      </trkpt>
      <trkpt lat="50.38393" lon="3.19433">
        <ele>64.00001</ele>
        <time>2012-11-10T13:52:24Z</time>
      </trkpt>
      <trkpt lat="50.3838" lon="3.19415">
        <ele>64.89989</ele>
        <time>2012-11-10T13:52:56Z</time>
      </trkpt>
      <trkpt lat="50.38362" lon="3.19422">
        <ele>63.103046</ele>
        <time>2012-11-10T13:53:17Z</time>
      </trkpt>
      <trkpt lat="50.38344" lon="3.19415">
        <ele>62.010044</ele>
        <time>2012-11-10T13:53:47Z</time>
      </trkpt>
      <trkpt lat="50.38338" lon="3.19444">
        <ele>61.042294</ele>
        <time>2012-11-10T13:54:05Z</time>
      </trkpt>
      <trkpt lat="50.38333" lon="3.19473">
        <ele>61.00075</ele>
        <time>2012-11-10T13:54:19Z</time>
      </trkpt>
      <trkpt lat="50.38329" lon="3.19502">
        <ele>60.750027</ele>
        <time>2012-11-10T13:54:40Z</time>
      </trkpt>
      <trkpt lat="50.38333" lon="3.19532">
        <ele>60.04222</ele>
        <time>2012-11-10T13:54:50Z</time>
      </trkpt>
      <trkpt lat="50.38335" lon="3.19561">
        <ele>60.001766</ele>
        <time>2012-11-10T13:55:01Z</time>
      </trkpt>
      <trkpt lat="50.38335" lon="3.1959">
        <ele>60.000046</ele>
        <time>2012-11-10T13:55:13Z</time>
      </trkpt>
      <trkpt lat="50.38335" lon="3.19621">
        <ele>60.000004</ele>
        <time>2012-11-10T13:55:27Z</time>
      </trkpt>
      <trkpt lat="50.38331" lon="3.19648">
        <ele>60.000008</ele>
        <time>2012-11-10T13:55:41Z</time>
      </trkpt>
      <trkpt lat="50.38321" lon="3.19674">
        <ele>60.00002</ele>
        <time>2012-11-10T13:55:57Z</time>
      </trkpt>
      <trkpt lat="50.38304" lon="3.19685">
        <ele>60</ele>
        <time>2012-11-10T13:56:10Z</time>
      </trkpt>
      <trkpt lat="50.38291" lon="3.19705">
        <ele>60.822067</ele>
        <time>2012-11-10T13:56:27Z</time>
      </trkpt>
      <trkpt lat="50.38283" lon="3.19732">
        <ele>60.998245</ele>
        <time>2012-11-10T13:56:43Z</time>
      </trkpt>
      <trkpt lat="50.38281" lon="3.19761">
        <ele>60.999996</ele>
        <time>2012-11-10T13:57:04Z</time>
      </trkpt>
      <trkpt lat="50.38285" lon="3.19791">
        <ele>60.999947</ele>
        <time>2012-11-10T13:57:14Z</time>
      </trkpt>
      <trkpt lat="50.38296" lon="3.19818">
        <ele>60.999935</ele>
        <time>2012-11-10T13:57:25Z</time>
      </trkpt>
      <trkpt lat="50.38311" lon="3.19803">
        <ele>61.55684</ele>
        <time>2012-11-10T13:58:23Z</time>
      </trkpt>
      <trkpt lat="50.3833" lon="3.19807">
        <ele>61.00314</ele>
        <time>2012-11-10T13:58:41Z</time>
      </trkpt>
      <trkpt lat="50.38327" lon="3.19842">
        <ele>61.00013</ele>
        <time>2012-11-10T13:59:21Z</time>
      </trkpt>
      <trkpt lat="50.38345" lon="3.1985">
        <ele>60.999966</ele>
        <time>2012-11-10T14:00:14Z</time>
      </trkpt>
      <trkpt lat="50.38357" lon="3.19871">
        <ele>60.99994</ele>
        <time>2012-11-10T14:00:33Z</time>
      </trkpt>
      <trkpt lat="50.38375" lon="3.19864">
        <ele>60.100033</ele>
        <time>2012-11-10T14:01:55Z</time>
      </trkpt>
      <trkpt lat="50.38378" lon="3.19893">
        <ele>59.99992</ele>
        <time>2012-11-10T14:02:26Z</time>
      </trkpt>
      <trkpt lat="50.38387" lon="3.19919">
        <ele>59.99988</ele>
        <time>2012-11-10T14:02:36Z</time>
      </trkpt>
      <trkpt lat="50.38386" lon="3.19948">
        <ele>59.999866</ele>
        <time>2012-11-10T14:03:12Z</time>
      </trkpt>
      <trkpt lat="50.38404" lon="3.1996">
        <ele>59.99979</ele>
        <time>2012-11-10T14:03:19Z</time>
      </trkpt>
      <trkpt lat="50.3844" lon="3.19946">
        <ele>59.99989</ele>
        <time>2012-11-10T14:04:32Z</time>
      </trkpt>
      <trkpt lat="50.38451" lon="3.19972">
        <ele>59.999996</ele>
        <time>2012-11-10T14:06:09Z</time>
      </trkpt>
      <trkpt lat="50.38459" lon="3.19997">
        <ele>59.999996</ele>
        <time>2012-11-10T14:06:40Z</time>
      </trkpt>
      <trkpt lat="50.38465" lon="3.20024">
        <ele>60.000008</ele>
        <time>2012-11-10T14:06:59Z</time>
      </trkpt>
      <trkpt lat="50.38432" lon="3.20021">
        <ele>60.000027</ele>
        <time>2012-11-10T14:07:11Z</time>
      </trkpt>
      <trkpt lat="50.38415" lon="3.20007">
        <ele>60.000004</ele>
        <time>2012-11-10T14:07:17Z</time>
      </trkpt>
      <trkpt lat="50.38429" lon="3.19978">
        <ele>60.000004</ele>
        <time>2012-11-10T14:07:21Z</time>
      </trkpt>
      <trkpt lat="50.38446" lon="3.20009">
        <ele>59.75</ele>
        <time>2012-11-10T14:07:25Z</time>
      </trkpt>
      <trkpt lat="50.38441" lon="3.20037">
        <ele>59.421875</ele>
        <time>2012-11-10T14:07:27Z</time>
      </trkpt>
      <trkpt lat="50.38444" lon="3.20066">
        <ele>59.17798</ele>
        <time>2012-11-10T14:07:31Z</time>
      </trkpt>
      <trkpt lat="50.38452" lon="3.20091">
        <ele>59.056313</ele>
        <time>2012-11-10T14:07:36Z</time>
      </trkpt>
      <trkpt lat="50.38468" lon="3.20112">
        <ele>59.00752</ele>
        <time>2012-11-10T14:07:43Z</time>
      </trkpt>
      <trkpt lat="50.38488" lon="3.2009">
        <ele>59.00317</ele>
        <time>2012-11-10T14:07:46Z</time>
      </trkpt>
      <trkpt lat="50.38502" lon="3.20068">
        <ele>59.57913</ele>
        <time>2012-11-10T14:07:50Z</time>
      </trkpt>
      <trkpt lat="50.38521" lon="3.20073">
        <ele>59.99822</ele>
        <time>2012-11-10T14:08:09Z</time>
      </trkpt>
      <trkpt lat="50.3853" lon="3.20097">
        <ele>59.999924</ele>
        <time>2012-11-10T14:08:20Z</time>
      </trkpt>
      <trkpt lat="50.38543" lon="3.20118">
        <ele>59.999985</ele>
        <time>2012-11-10T14:09:17Z</time>
      </trkpt>
      <trkpt lat="50.38559" lon="3.20131">
        <ele>59.999985</ele>
        <time>2012-11-10T14:09:33Z</time>
      </trkpt>
      <trkpt lat="50.3857" lon="3.20154">
        <ele>59.99994</ele>
        <time>2012-11-10T14:09:48Z</time>
      </trkpt>
      <trkpt lat="50.38587" lon="3.20163">
        <ele>59.999966</ele>
        <time>2012-11-10T14:09:59Z</time>
      </trkpt>
      <trkpt lat="50.38605" lon="3.20167">
        <ele>60.000023</ele>
        <time>2012-11-10T14:10:16Z</time>
      </trkpt>
      <trkpt lat="50.38624" lon="3.20163">
        <ele>60.000027</ele>
        <time>2012-11-10T14:10:34Z</time>
      </trkpt>
      <trkpt lat="50.3864" lon="3.20148">
        <ele>59.01336</ele>
        <time>2012-11-10T14:10:50Z</time>
      </trkpt>
      <trkpt lat="50.38646" lon="3.20177">
        <ele>59.000084</ele>
        <time>2012-11-10T14:11:08Z</time>
      </trkpt>
      <trkpt lat="50.38664" lon="3.20177">
        <ele>59.924984</ele>
        <time>2012-11-10T14:11:27Z</time>
      </trkpt>
      <trkpt lat="50.38675" lon="3.20152">
        <ele>59.99575</ele>
        <time>2012-11-10T14:11:37Z</time>
      </trkpt>
      <trkpt lat="50.38686" lon="3.2013">
        <ele>59.031612</ele>
        <time>2012-11-10T14:11:51Z</time>
      </trkpt>
      <trkpt lat="50.38676" lon="3.20105">
        <ele>59.00003</ele>
        <time>2012-11-10T14:12:17Z</time>
      </trkpt>
      <trkpt lat="50.38689" lon="3.20084">
        <ele>59</ele>
        <time>2012-11-10T14:13:10Z</time>
      </trkpt>
      <trkpt lat="50.38707" lon="3.2008">
        <ele>59</ele>
        <time>2012-11-10T14:13:14Z</time>
      </trkpt>
      <trkpt lat="50.38718" lon="3.20035">
        <ele>59.99925</ele>
        <time>2012-11-10T14:13:55Z</time>
      </trkpt>
      <trkpt lat="50.38809" lon="3.19992">
        <ele>59.75</ele>
        <time>2012-11-10T14:14:53Z</time>
      </trkpt>
      <trkpt lat="50.38795" lon="3.20037">
        <ele>59.5625</ele>
        <time>2012-11-10T14:14:58Z</time>
      </trkpt>
      <trkpt lat="50.38775" lon="3.2007">
        <ele>59.42798</ele>
        <time>2012-11-10T14:15:02Z</time>
      </trkpt>
      <trkpt lat="50.38761" lon="3.2009">
        <ele>59.996773</ele>
        <time>2012-11-10T14:15:20Z</time>
      </trkpt>
      <trkpt lat="50.38734" lon="3.20131">
        <ele>59.999947</ele>
        <time>2012-11-10T14:15:49Z</time>
      </trkpt>
      <trkpt lat="50.38729" lon="3.20158">
        <ele>59.999996</ele>
        <time>2012-11-10T14:17:39Z</time>
      </trkpt>
      <trkpt lat="50.3873" lon="3.2019">
        <ele>59.99998</ele>
        <time>2012-11-10T14:17:50Z</time>
      </trkpt>
      <trkpt lat="50.38738" lon="3.20216">
        <ele>60.000027</ele>
        <time>2012-11-10T14:18:05Z</time>
      </trkpt>
      <trkpt lat="50.38737" lon="3.20247">
        <ele>59.075047</ele>
        <time>2012-11-10T14:18:25Z</time>
      </trkpt>
      <trkpt lat="50.38729" lon="3.20273">
        <ele>59.00185</ele>
        <time>2012-11-10T14:18:38Z</time>
      </trkpt>
      <trkpt lat="50.38682" lon="3.20278">
        <ele>89.40825</ele>
        <time>2012-11-10T14:21:03Z</time>
      </trkpt>
      <trkpt lat="50.3869" lon="3.20308">
        <ele>88.999695</ele>
        <time>2012-11-10T14:21:31Z</time>
      </trkpt>
      <trkpt lat="50.38706" lon="3.20323">
        <ele>88.99997</ele>
        <time>2012-11-10T14:21:39Z</time>
      </trkpt>
      <trkpt lat="50.387" lon="3.20351">
        <ele>88.01337</ele>
        <time>2012-11-10T14:22:04Z</time>
      </trkpt>
      <trkpt lat="50.38684" lon="3.20338">
        <ele>84.64083</ele>
        <time>2012-11-10T14:22:52Z</time>
      </trkpt>
      <trkpt lat="50.38665" lon="3.20342">
        <ele>82.51218</ele>
        <time>2012-11-10T14:23:05Z</time>
      </trkpt>
      <trkpt lat="50.38647" lon="3.2035">
        <ele>80.354935</ele>
        <time>2012-11-10T14:23:20Z</time>
      </trkpt>
      <trkpt lat="50.3863" lon="3.20359">
        <ele>79.08141</ele>
        <time>2012-11-10T14:23:34Z</time>
      </trkpt>
      <trkpt lat="50.38614" lon="3.20374">
        <ele>79.001465</ele>
        <time>2012-11-10T14:23:48Z</time>
      </trkpt>
      <trkpt lat="50.38595" lon="3.2038">
        <ele>78.86652</ele>
        <time>2012-11-10T14:24:42Z</time>
      </trkpt>
      <trkpt lat="50.38579" lon="3.20391">
        <ele>78.99763</ele>
        <time>2012-11-10T14:24:56Z</time>
      </trkpt>
      <trkpt lat="50.38564" lon="3.2041">
        <ele>78.01777</ele>
        <time>2012-11-10T14:25:10Z</time>
      </trkpt>
      <trkpt lat="50.38546" lon="3.20416">
        <ele>78.82238</ele>
        <time>2012-11-10T14:25:24Z</time>
      </trkpt>
      <trkpt lat="50.38532" lon="3.20437">
        <ele>78.99976</ele>
        <time>2012-11-10T14:25:47Z</time>
      </trkpt>
      <trkpt lat="50.38539" lon="3.20465">
        <ele>78.07512</ele>
        <time>2012-11-10T14:26:01Z</time>
      </trkpt>
      <trkpt lat="50.38555" lon="3.20481">
        <ele>78.00179</ele>
        <time>2012-11-10T14:26:14Z</time>
      </trkpt>
      <trkpt lat="50.38557" lon="3.2051">
        <ele>77.17799</ele>
        <time>2012-11-10T14:26:25Z</time>
      </trkpt>
      <trkpt lat="50.38563" lon="3.20537">
        <ele>76.75565</ele>
        <time>2012-11-10T14:26:37Z</time>
      </trkpt>
      <trkpt lat="50.3858" lon="3.20548">
        <ele>76.02398</ele>
        <time>2012-11-10T14:26:49Z</time>
      </trkpt>
      <trkpt lat="50.38587" lon="3.20576">
        <ele>76.763405</ele>
        <time>2012-11-10T14:27:01Z</time>
      </trkpt>
      <trkpt lat="50.38605" lon="3.20584">
        <ele>76.99868</ele>
        <time>2012-11-10T14:27:19Z</time>
      </trkpt>
      <trkpt lat="50.38606" lon="3.20614">
        <ele>76.99979</ele>
        <time>2012-11-10T14:27:29Z</time>
      </trkpt>
      <trkpt lat="50.38606" lon="3.20644">
        <ele>76.99991</ele>
        <time>2012-11-10T14:27:38Z</time>
      </trkpt>
      <trkpt lat="50.38608" lon="3.20673">
        <ele>76.99997</ele>
        <time>2012-11-10T14:27:49Z</time>
      </trkpt>
      <trkpt lat="50.38613" lon="3.20701">
        <ele>77.00004</ele>
        <time>2012-11-10T14:28:01Z</time>
      </trkpt>
      <trkpt lat="50.38631" lon="3.20708">
        <ele>76.99986</ele>
        <time>2012-11-10T14:28:14Z</time>
      </trkpt>
      <trkpt lat="50.38613" lon="3.20709">
        <ele>74.000145</ele>
        <time>2012-11-10T14:30:18Z</time>
      </trkpt>
      <trkpt lat="50.38602" lon="3.20684">
        <ele>74</ele>
        <time>2012-11-10T14:30:46Z</time>
      </trkpt>
      <trkpt lat="50.38603" lon="3.20654">
        <ele>74.00001</ele>
        <time>2012-11-10T14:30:59Z</time>
      </trkpt>
      <trkpt lat="50.38602" lon="3.20624">
        <ele>74.76272</ele>
        <time>2012-11-10T14:31:15Z</time>
      </trkpt>
      <trkpt lat="50.38596" lon="3.20596">
        <ele>74.99578</ele>
        <time>2012-11-10T14:31:29Z</time>
      </trkpt>
      <trkpt lat="50.38583" lon="3.20577">
        <ele>74.99996</ele>
        <time>2012-11-10T14:31:58Z</time>
      </trkpt>
      <trkpt lat="50.38595" lon="3.20597">
        <ele>70.046524</ele>
        <time>2012-11-10T14:34:13Z</time>
      </trkpt>
      <trkpt lat="50.38606" lon="3.20621">
        <ele>69.02489</ele>
        <time>2012-11-10T14:34:26Z</time>
      </trkpt>
      <trkpt lat="50.3862" lon="3.2064">
        <ele>69.0008</ele>
        <time>2012-11-10T14:34:39Z</time>
      </trkpt>
      <trkpt lat="50.3861" lon="3.20668">
        <ele>69.821976</ele>
        <time>2012-11-10T14:34:56Z</time>
      </trkpt>
      <trkpt lat="50.38598" lon="3.2069">
        <ele>69.98655</ele>
        <time>2012-11-10T14:35:05Z</time>
      </trkpt>
      <trkpt lat="50.38611" lon="3.2071">
        <ele>70.98995</ele>
        <time>2012-11-10T14:35:30Z</time>
      </trkpt>
      <trkpt lat="50.38629" lon="3.20711">
        <ele>69.03183</ele>
        <time>2012-11-10T14:36:22Z</time>
      </trkpt>
      <trkpt lat="50.38619" lon="3.20737">
        <ele>68.99994</ele>
        <time>2012-11-10T14:37:07Z</time>
      </trkpt>
      <trkpt lat="50.38616" lon="3.20708">
        <ele>69</ele>
        <time>2012-11-10T14:37:48Z</time>
      </trkpt>
      <trkpt lat="50.38614" lon="3.2068">
        <ele>68.421875</ele>
        <time>2012-11-10T14:38:17Z</time>
      </trkpt>
      <trkpt lat="50.38622" lon="3.20706">
        <ele>68.00133</ele>
        <time>2012-11-10T14:38:37Z</time>
      </trkpt>
      <trkpt lat="50.38633" lon="3.2073">
        <ele>66.003174</ele>
        <time>2012-11-10T14:40:12Z</time>
      </trkpt>
      <trkpt lat="50.38616" lon="3.20718">
        <ele>66</ele>
        <time>2012-11-10T14:41:11Z</time>
      </trkpt>
      <trkpt lat="50.38629" lon="3.20737">
        <ele>63.00003</ele>
        <time>2012-11-10T14:45:57Z</time>
      </trkpt>
      <trkpt lat="50.38629" lon="3.20766">
        <ele>62.999992</ele>
        <time>2012-11-10T14:46:08Z</time>
      </trkpt>
      <trkpt lat="50.38621" lon="3.20794">
        <ele>62.999996</ele>
        <time>2012-11-10T14:46:19Z</time>
      </trkpt>
      <trkpt lat="50.3862" lon="3.20823">
        <ele>63.000023</ele>
        <time>2012-11-10T14:46:35Z</time>
      </trkpt>
      <trkpt lat="50.38618" lon="3.20852">
        <ele>63.000103</ele>
        <time>2012-11-10T14:46:50Z</time>
      </trkpt>
      <trkpt lat="50.38609" lon="3.20879">
        <ele>60.031677</ele>
        <time>2012-11-10T14:48:08Z</time>
      </trkpt>
      <trkpt lat="50.38612" lon="3.20907">
        <ele>59.562935</ele>
        <time>2012-11-10T14:48:23Z</time>
      </trkpt>
      <trkpt lat="50.38611" lon="3.20935">
        <ele>59.00003</ele>
        <time>2012-11-10T14:48:57Z</time>
      </trkpt>
      <trkpt lat="50.38605" lon="3.20963">
        <ele>59</ele>
        <time>2012-11-10T14:49:10Z</time>
      </trkpt>
      <trkpt lat="50.38603" lon="3.20991">
        <ele>59</ele>
        <time>2012-11-10T14:49:23Z</time>
      </trkpt>
      <trkpt lat="50.386" lon="3.21021">
        <ele>58.07509</ele>
        <time>2012-11-10T14:49:37Z</time>
      </trkpt>
      <trkpt lat="50.386" lon="3.21051">
        <ele>58.001003</ele>
        <time>2012-11-10T14:49:52Z</time>
      </trkpt>
      <trkpt lat="50.38598" lon="3.21079">
        <ele>58.000042</ele>
        <time>2012-11-10T14:50:07Z</time>
      </trkpt>
      <trkpt lat="50.38593" lon="3.21107">
        <ele>58.00002</ele>
        <time>2012-11-10T14:50:23Z</time>
      </trkpt>
      <trkpt lat="50.38592" lon="3.21136">
        <ele>58.00002</ele>
        <time>2012-11-10T14:50:37Z</time>
      </trkpt>
      <trkpt lat="50.38588" lon="3.21164">
        <ele>58.00001</ele>
        <time>2012-11-10T14:50:50Z</time>
      </trkpt>
      <trkpt lat="50.38585" lon="3.21193">
        <ele>58.25011</ele>
        <time>2012-11-10T14:51:07Z</time>
      </trkpt>
      <trkpt lat="50.38579" lon="3.2122">
        <ele>58.957787</ele>
        <time>2012-11-10T14:51:17Z</time>
      </trkpt>
      <trkpt lat="50.38576" lon="3.2125">
        <ele>58.177197</ele>
        <time>2012-11-10T14:51:32Z</time>
      </trkpt>
      <trkpt lat="50.38583" lon="3.21277">
        <ele>58.000046</ele>
        <time>2012-11-10T14:52:24Z</time>
      </trkpt>
      <trkpt lat="50.38581" lon="3.21306">
        <ele>57.316315</ele>
        <time>2012-11-10T14:53:09Z</time>
      </trkpt>
      <trkpt lat="50.38576" lon="3.21335">
        <ele>57.074604</ele>
        <time>2012-11-10T14:53:14Z</time>
      </trkpt>
      <trkpt lat="50.38572" lon="3.21366">
        <ele>57.012863</ele>
        <time>2012-11-10T14:53:20Z</time>
      </trkpt>
      <trkpt lat="50.38568" lon="3.21394">
        <ele>57.001476</ele>
        <time>2012-11-10T14:53:27Z</time>
      </trkpt>
      <trkpt lat="50.38566" lon="3.21425">
        <ele>55.15129</ele>
        <time>2012-11-10T14:53:52Z</time>
      </trkpt>
      <trkpt lat="50.38564" lon="3.21457">
        <ele>53.864883</ele>
        <time>2012-11-10T14:54:00Z</time>
      </trkpt>
      <trkpt lat="50.38563" lon="3.21486">
        <ele>52.64881</ele>
        <time>2012-11-10T14:54:08Z</time>
      </trkpt>
      <trkpt lat="50.38563" lon="3.21517">
        <ele>51.26462</ele>
        <time>2012-11-10T14:54:19Z</time>
      </trkpt>
      <trkpt lat="50.38558" lon="3.21545">
        <ele>50.18627</ele>
        <time>2012-11-10T14:54:31Z</time>
      </trkpt>
      <trkpt lat="50.38556" lon="3.21573">
        <ele>50.00014</ele>
        <time>2012-11-10T14:54:56Z</time>
      </trkpt>
      <trkpt lat="50.38554" lon="3.21602">
        <ele>50.92492</ele>
        <time>2012-11-10T14:55:14Z</time>
      </trkpt>
      <trkpt lat="50.38559" lon="3.21631">
        <ele>50.999424</ele>
        <time>2012-11-10T14:55:31Z</time>
      </trkpt>
      <trkpt lat="50.38556" lon="3.21659">
        <ele>50.99988</ele>
        <time>2012-11-10T14:55:39Z</time>
      </trkpt>
      <trkpt lat="50.38557" lon="3.21688">
        <ele>51.000027</ele>
        <time>2012-11-10T14:55:54Z</time>
      </trkpt>
      <trkpt lat="50.38555" lon="3.21717">
        <ele>51.76268</ele>
        <time>2012-11-10T14:56:11Z</time>
      </trkpt>
      <trkpt lat="50.38569" lon="3.21735">
        <ele>51.99578</ele>
        <time>2012-11-10T14:56:25Z</time>
      </trkpt>
      <trkpt lat="50.38584" lon="3.21719">
        <ele>51.99994</ele>
        <time>2012-11-10T14:56:37Z</time>
      </trkpt>
      <trkpt lat="50.38604" lon="3.21709">
        <ele>51.999992</ele>
        <time>2012-11-10T14:56:46Z</time>
      </trkpt>
      <trkpt lat="50.38622" lon="3.217">
        <ele>51.99996</ele>
        <time>2012-11-10T14:56:52Z</time>
      </trkpt>
      <trkpt lat="50.3864" lon="3.21689">
        <ele>51.999966</ele>
        <time>2012-11-10T14:56:57Z</time>
      </trkpt>
      <trkpt lat="50.38659" lon="3.21681">
        <ele>51.999996</ele>
        <time>2012-11-10T14:57:04Z</time>
      </trkpt>
      <trkpt lat="50.3868" lon="3.21681">
        <ele>51.749966</ele>
        <time>2012-11-10T14:57:10Z</time>
      </trkpt>
      <trkpt lat="50.38699" lon="3.21679">
        <ele>51.13348</ele>
        <time>2012-11-10T14:57:16Z</time>
      </trkpt>
      <trkpt lat="50.38717" lon="3.21683">
        <ele>51.01783</ele>
        <time>2012-11-10T14:57:23Z</time>
      </trkpt>
      <trkpt lat="50.38736" lon="3.21691">
        <ele>51.00244</ele>
        <time>2012-11-10T14:57:30Z</time>
      </trkpt>
      <trkpt lat="50.38755" lon="3.217">
        <ele>51.000385</ele>
        <time>2012-11-10T14:57:38Z</time>
      </trkpt>
      <trkpt lat="50.38775" lon="3.21696">
        <ele>51.00014</ele>
        <time>2012-11-10T14:57:46Z</time>
      </trkpt>
      <trkpt lat="50.38794" lon="3.21689">
        <ele>51.00009</ele>
        <time>2012-11-10T14:57:53Z</time>
      </trkpt>
      <trkpt lat="50.38813" lon="3.21687">
        <ele>51.000122</ele>
        <time>2012-11-10T14:58:01Z</time>
      </trkpt>
      <trkpt lat="50.38829" lon="3.21701">
        <ele>51.00028</ele>
        <time>2012-11-10T14:58:08Z</time>
      </trkpt>
      <trkpt lat="50.38847" lon="3.21696">
        <ele>51.000362</ele>
        <time>2012-11-10T14:58:17Z</time>
      </trkpt>
      <trkpt lat="50.38866" lon="3.21687">
        <ele>51.00028</ele>
        <time>2012-11-10T14:58:27Z</time>
      </trkpt>
      <trkpt lat="50.38878" lon="3.21665">
        <ele>51.000145</ele>
        <time>2012-11-10T14:58:40Z</time>
      </trkpt>
      <trkpt lat="50.38894" lon="3.21651">
        <ele>51.000095</ele>
        <time>2012-11-10T14:58:53Z</time>
      </trkpt>
      <trkpt lat="50.38908" lon="3.21671">
        <ele>49.55545</ele>
        <time>2012-11-10T14:59:04Z</time>
      </trkpt>
      <trkpt lat="50.38915" lon="3.21642">
        <ele>46.79899</ele>
        <time>2012-11-10T14:59:19Z</time>
      </trkpt>
      <trkpt lat="50.38922" lon="3.21616">
        <ele>46.033897</ele>
        <time>2012-11-10T14:59:30Z</time>
      </trkpt>
      <trkpt lat="50.38934" lon="3.21595">
        <ele>46.684483</ele>
        <time>2012-11-10T14:59:43Z</time>
      </trkpt>
      <trkpt lat="50.38941" lon="3.21567">
        <ele>47.42999</ele>
        <time>2012-11-10T14:59:56Z</time>
      </trkpt>
      <trkpt lat="50.38959" lon="3.21558">
        <ele>47.986435</ele>
        <time>2012-11-10T15:00:09Z</time>
      </trkpt>
      <trkpt lat="50.38974" lon="3.21527">
        <ele>48.9823</ele>
        <time>2012-11-10T15:00:26Z</time>
      </trkpt>
      <trkpt lat="50.38985" lon="3.21504">
        <ele>48.99873</ele>
        <time>2012-11-10T15:00:35Z</time>
      </trkpt>
      <trkpt lat="50.38996" lon="3.21527">
        <ele>49.000286</ele>
        <time>2012-11-10T15:00:55Z</time>
      </trkpt>
      <trkpt lat="50.38996" lon="3.21556">
        <ele>48.03193</ele>
        <time>2012-11-10T15:01:08Z</time>
      </trkpt>
      <trkpt lat="50.38992" lon="3.21588">
        <ele>48.001484</ele>
        <time>2012-11-10T15:01:19Z</time>
      </trkpt>
      <trkpt lat="50.38988" lon="3.21616">
        <ele>48.762905</ele>
        <time>2012-11-10T15:01:27Z</time>
      </trkpt>
      <trkpt lat="50.38987" lon="3.21648">
        <ele>51.13175</ele>
        <time>2012-11-10T15:01:50Z</time>
      </trkpt>
      <trkpt lat="50.38986" lon="3.21677">
        <ele>52.888298</ele>
        <time>2012-11-10T15:02:05Z</time>
      </trkpt>
      <trkpt lat="50.38986" lon="3.21706">
        <ele>54.22358</ele>
        <time>2012-11-10T15:02:18Z</time>
      </trkpt>
      <trkpt lat="50.38987" lon="3.21736">
        <ele>54.986168</ele>
        <time>2012-11-10T15:02:32Z</time>
      </trkpt>
      <trkpt lat="50.38987" lon="3.21766">
        <ele>54.999672</ele>
        <time>2012-11-10T15:02:45Z</time>
      </trkpt>
      <trkpt lat="50.38987" lon="3.21795">
        <ele>54.999985</ele>
        <time>2012-11-10T15:02:57Z</time>
      </trkpt>
      <trkpt lat="50.38986" lon="3.21823">
        <ele>55.24999</ele>
        <time>2012-11-10T15:03:09Z</time>
      </trkpt>
      <trkpt lat="50.38986" lon="3.21852">
        <ele>55.97625</ele>
        <time>2012-11-10T15:03:21Z</time>
      </trkpt>
      <trkpt lat="50.38993" lon="3.21878">
        <ele>55.99979</ele>
        <time>2012-11-10T15:03:35Z</time>
      </trkpt>
      <trkpt lat="50.38991" lon="3.21908">
        <ele>52.6991</ele>
        <time>2012-11-10T15:03:59Z</time>
      </trkpt>
      <trkpt lat="50.38988" lon="3.21937">
        <ele>49.760628</ele>
        <time>2012-11-10T15:04:11Z</time>
      </trkpt>
      <trkpt lat="50.38992" lon="3.21964">
        <ele>46.98428</ele>
        <time>2012-11-10T15:04:25Z</time>
      </trkpt>
      <trkpt lat="50.3898" lon="3.21988">
        <ele>45.278984</ele>
        <time>2012-11-10T15:04:36Z</time>
      </trkpt>
      <trkpt lat="50.38982" lon="3.22016">
        <ele>44.242233</ele>
        <time>2012-11-10T15:04:50Z</time>
      </trkpt>
      <trkpt lat="50.38991" lon="3.22042">
        <ele>44.00583</ele>
        <time>2012-11-10T15:05:03Z</time>
      </trkpt>
      <trkpt lat="50.38999" lon="3.22068">
        <ele>44.00018</ele>
        <time>2012-11-10T15:05:17Z</time>
      </trkpt>
      <trkpt lat="50.39012" lon="3.2209">
        <ele>44.000584</ele>
        <time>2012-11-10T15:05:31Z</time>
      </trkpt>
      <trkpt lat="50.3898" lon="3.22108">
        <ele>44.00094</ele>
        <time>2012-11-10T15:05:39Z</time>
      </trkpt>
      <trkpt lat="50.38996" lon="3.22183">
        <ele>43.750706</ele>
        <time>2012-11-10T15:05:57Z</time>
      </trkpt>
      <trkpt lat="50.39003" lon="3.2221">
        <ele>39.046818</ele>
        <time>2012-11-10T15:06:16Z</time>
      </trkpt>
      <trkpt lat="50.3902" lon="3.22222">
        <ele>39.00112</ele>
        <time>2012-11-10T15:06:29Z</time>
      </trkpt>
      <trkpt lat="50.39023" lon="3.22251">
        <ele>39.00002</ele>
        <time>2012-11-10T15:06:43Z</time>
      </trkpt>
      <trkpt lat="50.39035" lon="3.22273">
        <ele>39.000122</ele>
        <time>2012-11-10T15:07:21Z</time>
      </trkpt>
      <trkpt lat="50.39017" lon="3.2228">
        <ele>38.999985</ele>
        <time>2012-11-10T15:07:46Z</time>
      </trkpt>
      <trkpt lat="50.38986" lon="3.22335">
        <ele>38.999813</ele>
        <time>2012-11-10T15:08:22Z</time>
      </trkpt>
      <trkpt lat="50.38967" lon="3.2234">
        <ele>38.999943</ele>
        <time>2012-11-10T15:08:26Z</time>
      </trkpt>
      <trkpt lat="50.38947" lon="3.22329">
        <ele>38.99998</ele>
        <time>2012-11-10T15:08:30Z</time>
      </trkpt>
      <trkpt lat="50.38925" lon="3.22317">
        <ele>38.999992</ele>
        <time>2012-11-10T15:08:34Z</time>
      </trkpt>
      <trkpt lat="50.38907" lon="3.22309">
        <ele>39</ele>
        <time>2012-11-10T15:08:44Z</time>
      </trkpt>
      <trkpt lat="50.3891" lon="3.22341">
        <ele>39</ele>
        <time>2012-11-10T15:08:46Z</time>
      </trkpt>
      <trkpt lat="50.3891" lon="3.22377">
        <ele>39</ele>
        <time>2012-11-10T15:08:48Z</time>
      </trkpt>
      <trkpt lat="50.38918" lon="3.22419">
        <ele>39.4375</ele>
        <time>2012-11-10T15:08:50Z</time>
      </trkpt>
      <trkpt lat="50.3893" lon="3.22443">
        <ele>39.512695</ele>
        <time>2012-11-10T15:08:53Z</time>
      </trkpt>
      <trkpt lat="50.3895" lon="3.22427">
        <ele>39.216293</ele>
        <time>2012-11-10T15:08:56Z</time>
      </trkpt>
      <trkpt lat="50.38967" lon="3.22439">
        <ele>39.00002</ele>
        <time>2012-11-10T15:09:32Z</time>
      </trkpt>
      <trkpt lat="50.38966" lon="3.2247">
        <ele>38.999954</ele>
        <time>2012-11-10T15:09:39Z</time>
      </trkpt>
      <trkpt lat="50.38965" lon="3.22499">
        <ele>38.99994</ele>
        <time>2012-11-10T15:09:47Z</time>
      </trkpt>
      <trkpt lat="50.38963" lon="3.22529">
        <ele>38.999912</ele>
        <time>2012-11-10T15:09:58Z</time>
      </trkpt>
      <trkpt lat="50.3896" lon="3.22559">
        <ele>38.999874</ele>
        <time>2012-11-10T15:10:07Z</time>
      </trkpt>
      <trkpt lat="50.38959" lon="3.22588">
        <ele>39.24992</ele>
        <time>2012-11-10T15:10:20Z</time>
      </trkpt>
      <trkpt lat="50.38953" lon="3.22616">
        <ele>39.968224</ele>
        <time>2012-11-10T15:10:31Z</time>
      </trkpt>
      <trkpt lat="50.38955" lon="3.22644">
        <ele>39.999626</ele>
        <time>2012-11-10T15:10:48Z</time>
      </trkpt>
      <trkpt lat="50.38966" lon="3.22668">
        <ele>40.95775</ele>
        <time>2012-11-10T15:11:08Z</time>
      </trkpt>
      <trkpt lat="50.38971" lon="3.227">
        <ele>39.54514</ele>
        <time>2012-11-10T15:11:16Z</time>
      </trkpt>
      <trkpt lat="50.38952" lon="3.22712">
        <ele>38.036564</ele>
        <time>2012-11-10T15:11:31Z</time>
      </trkpt>
      <trkpt lat="50.38934" lon="3.22719">
        <ele>38.001415</ele>
        <time>2012-11-10T15:11:42Z</time>
      </trkpt>
      <trkpt lat="50.38932" lon="3.2275">
        <ele>37.99965</ele>
        <time>2012-11-10T15:12:01Z</time>
      </trkpt>
      <trkpt lat="50.38944" lon="3.22771">
        <ele>38.899635</ele>
        <time>2012-11-10T15:12:09Z</time>
      </trkpt>
      <trkpt lat="50.38946" lon="3.22801">
        <ele>39.572075</ele>
        <time>2012-11-10T15:12:19Z</time>
      </trkpt>
      <trkpt lat="50.38936" lon="3.22825">
        <ele>42.723293</ele>
        <time>2012-11-10T15:12:36Z</time>
      </trkpt>
      <trkpt lat="50.38945" lon="3.2285">
        <ele>43.674435</ele>
        <time>2012-11-10T15:12:48Z</time>
      </trkpt>
      <trkpt lat="50.38947" lon="3.22878">
        <ele>43.050117</ele>
        <time>2012-11-10T15:12:57Z</time>
      </trkpt>
      <trkpt lat="50.38944" lon="3.22908">
        <ele>43.00156</ele>
        <time>2012-11-10T15:13:08Z</time>
      </trkpt>
      <trkpt lat="50.38938" lon="3.22938">
        <ele>42.99935</ele>
        <time>2012-11-10T15:14:10Z</time>
      </trkpt>
      <trkpt lat="50.38932" lon="3.22975">
        <ele>42.99827</ele>
        <time>2012-11-10T15:14:14Z</time>
      </trkpt>
      <trkpt lat="50.38926" lon="3.23009">
        <ele>42.997612</ele>
        <time>2012-11-10T15:14:18Z</time>
      </trkpt>
      <trkpt lat="50.3892" lon="3.23037">
        <ele>43.57573</ele>
        <time>2012-11-10T15:14:23Z</time>
      </trkpt>
      <trkpt lat="50.38919" lon="3.23069">
        <ele>43.897816</ele>
        <time>2012-11-10T15:14:28Z</time>
      </trkpt>
      <trkpt lat="50.3891" lon="3.23094">
        <ele>43.99543</ele>
        <time>2012-11-10T15:14:40Z</time>
      </trkpt>
      <trkpt lat="50.38899" lon="3.23117">
        <ele>43.998672</ele>
        <time>2012-11-10T15:14:58Z</time>
      </trkpt>
      <trkpt lat="50.38889" lon="3.2314">
        <ele>43.0297</ele>
        <time>2012-11-10T15:15:10Z</time>
      </trkpt>
      <trkpt lat="50.38888" lon="3.23169">
        <ele>43.001247</ele>
        <time>2012-11-10T15:15:18Z</time>
      </trkpt>
      <trkpt lat="50.38887" lon="3.23198">
        <ele>42.998966</ele>
        <time>2012-11-10T15:15:25Z</time>
      </trkpt>
      <trkpt lat="50.38882" lon="3.23226">
        <ele>42.315456</ele>
        <time>2012-11-10T15:15:33Z</time>
      </trkpt>
      <trkpt lat="50.38875" lon="3.23252">
        <ele>42.000374</ele>
        <time>2012-11-10T15:15:53Z</time>
      </trkpt>
      <trkpt lat="50.38859" lon="3.23266">
        <ele>42.820206</ele>
        <time>2012-11-10T15:16:07Z</time>
      </trkpt>
      <trkpt lat="50.38853" lon="3.23319">
        <ele>42.99895</ele>
        <time>2012-11-10T15:16:33Z</time>
      </trkpt>
      <trkpt lat="50.38863" lon="3.23361">
        <ele>42.998833</ele>
        <time>2012-11-10T15:16:36Z</time>
      </trkpt>
      <trkpt lat="50.38864" lon="3.2339">
        <ele>42.999447</ele>
        <time>2012-11-10T15:16:42Z</time>
      </trkpt>
      <trkpt lat="50.38865" lon="3.2342">
        <ele>43.000195</ele>
        <time>2012-11-10T15:16:56Z</time>
      </trkpt>
      <trkpt lat="50.38861" lon="3.23449">
        <ele>43.000153</ele>
        <time>2012-11-10T15:17:10Z</time>
      </trkpt>
      <trkpt lat="50.38853" lon="3.23476">
        <ele>43.00016</ele>
        <time>2012-11-10T15:17:22Z</time>
      </trkpt>
      <trkpt lat="50.38848" lon="3.23504">
        <ele>42.422054</ele>
        <time>2012-11-10T15:17:35Z</time>
      </trkpt>
      <trkpt lat="50.38845" lon="3.23533">
        <ele>42.005894</ele>
        <time>2012-11-10T15:17:50Z</time>
      </trkpt>
      <trkpt lat="50.3886" lon="3.2355">
        <ele>41.03171</ele>
        <time>2012-11-10T15:18:08Z</time>
      </trkpt>
      <trkpt lat="50.38875" lon="3.23532">
        <ele>41.98245</ele>
        <time>2012-11-10T15:18:32Z</time>
      </trkpt>
    </trkseg>
  </trk>
</gpx>